<?xml version="1.0" encoding="UTF-8" standalone="no" ?>
<gpx xmlns="http://www.topografix.com/GPX/1/1" xmlns:xsi="http://www.w3.org/2001/XMLSchema-instance" xsi:schemaLocation="http://www.topografix.com/GPX/1/1 http://www.topografix.com/GPX/1/1/gpx.xsd" version="1.1" creator="VisuGPX - https://www.visugpx.com">
  <metadata>
    <name>GR5 - Thann à Malvaux : Partie 1</name>
    <desc><![CDATA[GR5 - Thann à Malvaux : Partie 1]]></desc>
  </metadata>
  <trk>
    <name><![CDATA[Move]]></name>
    <trkseg>
      <trkpt lat="47.8096" lon="7.1021">
        <ele>341</ele>
        <time>2016-07-17T07:21:38.980Z</time>
      </trkpt>
      <trkpt lat="47.80959" lon="7.10204">
        <ele>341</ele>
        <time>2016-07-17T07:21:52.980Z</time>
      </trkpt>
      <trkpt lat="47.80954" lon="7.10193">
        <ele>342</ele>
        <time>2016-07-17T07:22:16.980Z</time>
      </trkpt>
      <trkpt lat="47.80944" lon="7.10189">
        <ele>342</ele>
        <time>2016-07-17T07:22:41.980Z</time>
      </trkpt>
      <trkpt lat="47.80934" lon="7.10184">
        <ele>342.09799936</ele>
        <time>2016-07-17T07:22:50.980Z</time>
      </trkpt>
      <trkpt lat="47.80923" lon="7.10183">
        <ele>342.89799936</ele>
        <time>2016-07-17T07:22:58.980Z</time>
      </trkpt>
      <trkpt lat="47.80912" lon="7.10185">
        <ele>343</ele>
        <time>2016-07-17T07:23:06.980Z</time>
      </trkpt>
      <trkpt lat="47.80901" lon="7.10185">
        <ele>343</ele>
        <time>2016-07-17T07:23:15.980Z</time>
      </trkpt>
      <trkpt lat="47.80891" lon="7.10186">
        <ele>343.29799936</ele>
        <time>2016-07-17T07:23:22.980Z</time>
      </trkpt>
      <trkpt lat="47.80884" lon="7.10179">
        <ele>344</ele>
        <time>2016-07-17T07:23:38.980Z</time>
      </trkpt>
      <trkpt lat="47.80889" lon="7.1017">
        <ele>344</ele>
        <time>2016-07-17T07:25:48.980Z</time>
      </trkpt>
      <trkpt lat="47.80893" lon="7.10159">
        <ele>344</ele>
        <time>2016-07-17T07:25:56.980Z</time>
      </trkpt>
      <trkpt lat="47.80893" lon="7.10148">
        <ele>344</ele>
        <time>2016-07-17T07:26:02.980Z</time>
      </trkpt>
      <trkpt lat="47.80893" lon="7.10131">
        <ele>343.49799936</ele>
        <time>2016-07-17T07:26:24.980Z</time>
      </trkpt>
      <trkpt lat="47.80895" lon="7.10116">
        <ele>344</ele>
        <time>2016-07-17T07:26:33.980Z</time>
      </trkpt>
      <trkpt lat="47.80896" lon="7.10101">
        <ele>344</ele>
        <time>2016-07-17T07:26:50.980Z</time>
      </trkpt>
      <trkpt lat="47.80899" lon="7.10087">
        <ele>344</ele>
        <time>2016-07-17T07:27:02.980Z</time>
      </trkpt>
      <trkpt lat="47.80909" lon="7.10093">
        <ele>344</ele>
        <time>2016-07-17T07:27:53.980Z</time>
      </trkpt>
      <trkpt lat="47.80919" lon="7.10096">
        <ele>344</ele>
        <time>2016-07-17T07:28:00.980Z</time>
      </trkpt>
      <trkpt lat="47.80929" lon="7.101">
        <ele>344</ele>
        <time>2016-07-17T07:28:08.980Z</time>
      </trkpt>
      <trkpt lat="47.80938" lon="7.10099">
        <ele>344.59800064</ele>
        <time>2016-07-17T07:28:15.980Z</time>
      </trkpt>
      <trkpt lat="47.80949" lon="7.10097">
        <ele>345</ele>
        <time>2016-07-17T07:28:23.980Z</time>
      </trkpt>
      <trkpt lat="47.80955" lon="7.10097">
        <ele>345</ele>
        <time>2016-07-17T07:28:28.980Z</time>
      </trkpt>
      <trkpt lat="47.80959" lon="7.10096">
        <ele>345.39800064</ele>
        <time>2016-07-17T07:28:33.980Z</time>
      </trkpt>
      <trkpt lat="47.80963" lon="7.10087">
        <ele>346</ele>
        <time>2016-07-17T07:28:40.980Z</time>
      </trkpt>
      <trkpt lat="47.80965" lon="7.10083">
        <ele>346</ele>
        <time>2016-07-17T07:28:51.980Z</time>
      </trkpt>
      <trkpt lat="47.80968" lon="7.10068">
        <ele>346.79600128</ele>
        <time>2016-07-17T07:29:03.980Z</time>
      </trkpt>
      <trkpt lat="47.80962" lon="7.10057">
        <ele>349.19600128</ele>
        <time>2016-07-17T07:29:15.980Z</time>
      </trkpt>
      <trkpt lat="47.80953" lon="7.10049">
        <ele>350.49799936</ele>
        <time>2016-07-17T07:29:24.980Z</time>
      </trkpt>
      <trkpt lat="47.80944" lon="7.10041">
        <ele>352.99599872</ele>
        <time>2016-07-17T07:29:44.980Z</time>
      </trkpt>
      <trkpt lat="47.80937" lon="7.10031">
        <ele>354.99599872</ele>
        <time>2016-07-17T07:29:54.980Z</time>
      </trkpt>
      <trkpt lat="47.80929" lon="7.1002">
        <ele>356.49799936</ele>
        <time>2016-07-17T07:30:04.980Z</time>
      </trkpt>
      <trkpt lat="47.80921" lon="7.10009">
        <ele>358.79400192</ele>
        <time>2016-07-17T07:30:15.980Z</time>
      </trkpt>
      <trkpt lat="47.80912" lon="7.10003">
        <ele>360.99599872</ele>
        <time>2016-07-17T07:30:34.980Z</time>
      </trkpt>
      <trkpt lat="47.80902" lon="7.09999">
        <ele>362.79600128</ele>
        <time>2016-07-17T07:31:13.980Z</time>
      </trkpt>
      <trkpt lat="47.80894" lon="7.09989">
        <ele>364.79600128</ele>
        <time>2016-07-17T07:31:23.980Z</time>
      </trkpt>
      <trkpt lat="47.80885" lon="7.09981">
        <ele>367.19600128</ele>
        <time>2016-07-17T07:31:35.980Z</time>
      </trkpt>
      <trkpt lat="47.80875" lon="7.09976">
        <ele>368</ele>
        <time>2016-07-17T07:31:42.980Z</time>
      </trkpt>
      <trkpt lat="47.80865" lon="7.09972">
        <ele>369.99599872</ele>
        <time>2016-07-17T07:32:04.980Z</time>
      </trkpt>
      <trkpt lat="47.80856" lon="7.09966">
        <ele>372.79599872</ele>
        <time>2016-07-17T07:32:18.980Z</time>
      </trkpt>
      <trkpt lat="47.80849" lon="7.0996">
        <ele>373.69799936</ele>
        <time>2016-07-17T07:32:26.980Z</time>
      </trkpt>
      <trkpt lat="47.8084" lon="7.09954">
        <ele>375.19600128</ele>
        <time>2016-07-17T07:32:35.980Z</time>
      </trkpt>
      <trkpt lat="47.80835" lon="7.09945">
        <ele>376</ele>
        <time>2016-07-17T07:32:41.980Z</time>
      </trkpt>
      <trkpt lat="47.80831" lon="7.09937">
        <ele>376</ele>
        <time>2016-07-17T07:32:47.980Z</time>
      </trkpt>
      <trkpt lat="47.80825" lon="7.09931">
        <ele>376.39800064</ele>
        <time>2016-07-17T07:32:53.980Z</time>
      </trkpt>
      <trkpt lat="47.80819" lon="7.09922">
        <ele>377.29799936</ele>
        <time>2016-07-17T07:33:02.980Z</time>
      </trkpt>
      <trkpt lat="47.80811" lon="7.09916">
        <ele>378.19800064</ele>
        <time>2016-07-17T07:33:11.980Z</time>
      </trkpt>
      <trkpt lat="47.80801" lon="7.09914">
        <ele>378.99800064</ele>
        <time>2016-07-17T07:33:19.980Z</time>
      </trkpt>
      <trkpt lat="47.80792" lon="7.09911">
        <ele>380.39599872</ele>
        <time>2016-07-17T07:33:26.980Z</time>
      </trkpt>
      <trkpt lat="47.80783" lon="7.09909">
        <ele>381</ele>
        <time>2016-07-17T07:33:32.980Z</time>
      </trkpt>
      <trkpt lat="47.80776" lon="7.09904">
        <ele>381</ele>
        <time>2016-07-17T07:33:38.980Z</time>
      </trkpt>
      <trkpt lat="47.80768" lon="7.099">
        <ele>381</ele>
        <time>2016-07-17T07:33:45.980Z</time>
      </trkpt>
      <trkpt lat="47.80759" lon="7.09896">
        <ele>382</ele>
        <time>2016-07-17T07:34:07.980Z</time>
      </trkpt>
      <trkpt lat="47.80751" lon="7.09887">
        <ele>382.89799936</ele>
        <time>2016-07-17T07:34:18.980Z</time>
      </trkpt>
      <trkpt lat="47.80743" lon="7.09879">
        <ele>384.59600128</ele>
        <time>2016-07-17T07:34:27.980Z</time>
      </trkpt>
      <trkpt lat="47.80737" lon="7.09871">
        <ele>385.39800064</ele>
        <time>2016-07-17T07:34:33.980Z</time>
      </trkpt>
      <trkpt lat="47.8073" lon="7.09859">
        <ele>386</ele>
        <time>2016-07-17T07:34:43.288Z</time>
      </trkpt>
      <trkpt lat="47.80725" lon="7.09846">
        <ele>386</ele>
        <time>2016-07-17T07:34:50.980Z</time>
      </trkpt>
      <trkpt lat="47.80722" lon="7.09827">
        <ele>386</ele>
        <time>2016-07-17T07:35:03.980Z</time>
      </trkpt>
      <trkpt lat="47.80723" lon="7.0981">
        <ele>386.29870043515</ele>
        <time>2016-07-17T07:35:12.980Z</time>
      </trkpt>
      <trkpt lat="47.80718" lon="7.09796">
        <ele>387.29799936</ele>
        <time>2016-07-17T07:35:22.980Z</time>
      </trkpt>
      <trkpt lat="47.80713" lon="7.09782">
        <ele>387.99810048</ele>
        <time>2016-07-17T07:35:29.981Z</time>
      </trkpt>
      <trkpt lat="47.80708" lon="7.09769">
        <ele>390.19800064</ele>
        <time>2016-07-17T07:35:41.980Z</time>
      </trkpt>
      <trkpt lat="47.80699" lon="7.09759">
        <ele>391.39600128</ele>
        <time>2016-07-17T07:35:51.980Z</time>
      </trkpt>
      <trkpt lat="47.80699" lon="7.09743">
        <ele>393.39839891142</ele>
        <time>2016-07-17T07:36:03.980Z</time>
      </trkpt>
      <trkpt lat="47.80696" lon="7.09728">
        <ele>394.59840210938</ele>
        <time>2016-07-17T07:36:15.980Z</time>
      </trkpt>
      <trkpt lat="47.80696" lon="7.09713">
        <ele>398.18881476566</ele>
        <time>2016-07-17T07:36:27.980Z</time>
      </trkpt>
      <trkpt lat="47.80695" lon="7.09698">
        <ele>400.09799936</ele>
        <time>2016-07-17T07:36:40.980Z</time>
      </trkpt>
      <trkpt lat="47.80693" lon="7.09683">
        <ele>401.19800064</ele>
        <time>2016-07-17T07:36:51.980Z</time>
      </trkpt>
      <trkpt lat="47.8069" lon="7.09668">
        <ele>402.09799936</ele>
        <time>2016-07-17T07:37:00.980Z</time>
      </trkpt>
      <trkpt lat="47.80684" lon="7.09653">
        <ele>402.89799936</ele>
        <time>2016-07-17T07:37:08.980Z</time>
      </trkpt>
      <trkpt lat="47.80679" lon="7.09632">
        <ele>403.29870043515</ele>
        <time>2016-07-17T07:37:22.980Z</time>
      </trkpt>
      <trkpt lat="47.80676" lon="7.09617">
        <ele>404.09799936</ele>
        <time>2016-07-17T07:37:30.980Z</time>
      </trkpt>
      <trkpt lat="47.80674" lon="7.09601">
        <ele>404.89769984</ele>
        <time>2016-07-17T07:37:38.977Z</time>
      </trkpt>
      <trkpt lat="47.80667" lon="7.09577">
        <ele>405</ele>
        <time>2016-07-17T07:37:52.980Z</time>
      </trkpt>
      <trkpt lat="47.80663" lon="7.09564">
        <ele>405</ele>
        <time>2016-07-17T07:38:05.982Z</time>
      </trkpt>
      <trkpt lat="47.80662" lon="7.09549">
        <ele>405.29759798275</ele>
        <time>2016-07-17T07:38:12.973Z</time>
      </trkpt>
      <trkpt lat="47.8066" lon="7.0953">
        <ele>406</ele>
        <time>2016-07-17T07:38:25.980Z</time>
      </trkpt>
      <trkpt lat="47.80658" lon="7.09515">
        <ele>406.59599872</ele>
        <time>2016-07-17T07:38:32.980Z</time>
      </trkpt>
      <trkpt lat="47.80658" lon="7.095">
        <ele>408.09799936</ele>
        <time>2016-07-17T07:38:40.980Z</time>
      </trkpt>
      <trkpt lat="47.80662" lon="7.09487">
        <ele>408.99800064</ele>
        <time>2016-07-17T07:38:49.980Z</time>
      </trkpt>
      <trkpt lat="47.80665" lon="7.09474">
        <ele>409.89799936</ele>
        <time>2016-07-17T07:38:58.980Z</time>
      </trkpt>
      <trkpt lat="47.80667" lon="7.09461">
        <ele>411.59600128</ele>
        <time>2016-07-17T07:39:07.980Z</time>
      </trkpt>
      <trkpt lat="47.80671" lon="7.09448">
        <ele>412</ele>
        <time>2016-07-17T07:39:16.980Z</time>
      </trkpt>
      <trkpt lat="47.80673" lon="7.09436">
        <ele>412.79600128</ele>
        <time>2016-07-17T07:39:23.980Z</time>
      </trkpt>
      <trkpt lat="47.80677" lon="7.0942">
        <ele>414.49849769818</ele>
        <time>2016-07-17T07:39:34.980Z</time>
      </trkpt>
      <trkpt lat="47.80681" lon="7.09405">
        <ele>416.19680421876</ele>
        <time>2016-07-17T07:39:45.980Z</time>
      </trkpt>
      <trkpt lat="47.80684" lon="7.0939">
        <ele>417.29799936</ele>
        <time>2016-07-17T07:39:52.980Z</time>
      </trkpt>
      <trkpt lat="47.80688" lon="7.09376">
        <ele>418.49849769818</ele>
        <time>2016-07-17T07:40:04.980Z</time>
      </trkpt>
      <trkpt lat="47.80692" lon="7.09361">
        <ele>420.19680421876</ele>
        <time>2016-07-17T07:40:15.980Z</time>
      </trkpt>
      <trkpt lat="47.80693" lon="7.09346">
        <ele>421.39800064</ele>
        <time>2016-07-17T07:40:23.980Z</time>
      </trkpt>
      <trkpt lat="47.80693" lon="7.0933">
        <ele>423.19600128</ele>
        <time>2016-07-17T07:40:35.980Z</time>
      </trkpt>
      <trkpt lat="47.80697" lon="7.09316">
        <ele>424.19599872</ele>
        <time>2016-07-17T07:40:50.980Z</time>
      </trkpt>
      <trkpt lat="47.80704" lon="7.09305">
        <ele>426.39800064</ele>
        <time>2016-07-17T07:41:03.980Z</time>
      </trkpt>
      <trkpt lat="47.80711" lon="7.09292">
        <ele>427.99699539636</ele>
        <time>2016-07-17T07:41:14.980Z</time>
      </trkpt>
      <trkpt lat="47.80716" lon="7.09271">
        <ele>429</ele>
        <time>2016-07-17T07:41:28.980Z</time>
      </trkpt>
      <trkpt lat="47.80721" lon="7.09256">
        <ele>428.30478151394</ele>
        <time>2016-07-17T07:41:36.980Z</time>
      </trkpt>
      <trkpt lat="47.80729" lon="7.09239">
        <ele>429.59437879518</ele>
        <time>2016-07-17T07:41:47.980Z</time>
      </trkpt>
      <trkpt lat="47.80726" lon="7.09223">
        <ele>430</ele>
        <time>2016-07-17T07:41:55.980Z</time>
      </trkpt>
      <trkpt lat="47.8073" lon="7.09208">
        <ele>430</ele>
        <time>2016-07-17T07:42:05.980Z</time>
      </trkpt>
      <trkpt lat="47.80735" lon="7.09192">
        <ele>430</ele>
        <time>2016-07-17T07:42:15.980Z</time>
      </trkpt>
      <trkpt lat="47.8074" lon="7.09179">
        <ele>430.59780509241</ele>
        <time>2016-07-17T07:42:25.980Z</time>
      </trkpt>
      <trkpt lat="47.80755" lon="7.09156">
        <ele>431</ele>
        <time>2016-07-17T07:42:37.980Z</time>
      </trkpt>
      <trkpt lat="47.80765" lon="7.09141">
        <ele>431.39860184571</ele>
        <time>2016-07-17T07:42:53.980Z</time>
      </trkpt>
      <trkpt lat="47.80774" lon="7.09134">
        <ele>432.19599872</ele>
        <time>2016-07-17T07:43:00.980Z</time>
      </trkpt>
      <trkpt lat="47.80781" lon="7.09124">
        <ele>434.19800064</ele>
        <time>2016-07-17T07:43:11.980Z</time>
      </trkpt>
      <trkpt lat="47.80788" lon="7.09112">
        <ele>435.29799936</ele>
        <time>2016-07-17T07:43:22.980Z</time>
      </trkpt>
      <trkpt lat="47.80792" lon="7.09097">
        <ele>436.49799936</ele>
        <time>2016-07-17T07:43:34.980Z</time>
      </trkpt>
      <trkpt lat="47.80796" lon="7.09082">
        <ele>437</ele>
        <time>2016-07-17T07:43:44.980Z</time>
      </trkpt>
      <trkpt lat="47.80801" lon="7.09069">
        <ele>439</ele>
        <time>2016-07-17T07:44:06.980Z</time>
      </trkpt>
      <trkpt lat="47.80804" lon="7.09054">
        <ele>440.59800064</ele>
        <time>2016-07-17T07:44:25.980Z</time>
      </trkpt>
      <trkpt lat="47.80813" lon="7.09049">
        <ele>441.59599872</ele>
        <time>2016-07-17T07:44:32.980Z</time>
      </trkpt>
      <trkpt lat="47.80822" lon="7.09042">
        <ele>443.19800064</ele>
        <time>2016-07-17T07:44:41.980Z</time>
      </trkpt>
      <trkpt lat="47.80828" lon="7.09029">
        <ele>444.99599872</ele>
        <time>2016-07-17T07:44:54.980Z</time>
      </trkpt>
      <trkpt lat="47.80834" lon="7.09016">
        <ele>447.39599872</ele>
        <time>2016-07-17T07:45:06.980Z</time>
      </trkpt>
      <trkpt lat="47.8084" lon="7.09005">
        <ele>448.69799936</ele>
        <time>2016-07-17T07:45:16.980Z</time>
      </trkpt>
      <trkpt lat="47.80849" lon="7.08995">
        <ele>451.39600128</ele>
        <time>2016-07-17T07:45:31.980Z</time>
      </trkpt>
      <trkpt lat="47.80857" lon="7.08986">
        <ele>453.19800064</ele>
        <time>2016-07-17T07:45:41.980Z</time>
      </trkpt>
      <trkpt lat="47.80865" lon="7.08976">
        <ele>454.49799936</ele>
        <time>2016-07-17T07:45:54.980Z</time>
      </trkpt>
      <trkpt lat="47.80873" lon="7.08967">
        <ele>456.39599872</ele>
        <time>2016-07-17T07:46:06.980Z</time>
      </trkpt>
      <trkpt lat="47.80881" lon="7.08959">
        <ele>458.79599872</ele>
        <time>2016-07-17T07:46:18.980Z</time>
      </trkpt>
      <trkpt lat="47.80888" lon="7.08948">
        <ele>460.79599872</ele>
        <time>2016-07-17T07:46:28.980Z</time>
      </trkpt>
      <trkpt lat="47.80898" lon="7.08943">
        <ele>461.69799936</ele>
        <time>2016-07-17T07:46:36.980Z</time>
      </trkpt>
      <trkpt lat="47.80905" lon="7.08934">
        <ele>462</ele>
        <time>2016-07-17T07:46:48.980Z</time>
      </trkpt>
      <trkpt lat="47.80916" lon="7.08927">
        <ele>463.79599872</ele>
        <time>2016-07-17T07:46:58.980Z</time>
      </trkpt>
      <trkpt lat="47.80926" lon="7.08919">
        <ele>465.49799936</ele>
        <time>2016-07-17T07:47:14.980Z</time>
      </trkpt>
      <trkpt lat="47.80935" lon="7.08915">
        <ele>466.49799936</ele>
        <time>2016-07-17T07:47:24.980Z</time>
      </trkpt>
      <trkpt lat="47.80945" lon="7.08925">
        <ele>468.19599872</ele>
        <time>2016-07-17T07:47:40.980Z</time>
      </trkpt>
      <trkpt lat="47.80954" lon="7.08936">
        <ele>470.59540350702</ele>
        <time>2016-07-17T07:47:52.980Z</time>
      </trkpt>
      <trkpt lat="47.80963" lon="7.08943">
        <ele>472.09709674568</ele>
        <time>2016-07-17T07:48:00.980Z</time>
      </trkpt>
      <trkpt lat="47.80972" lon="7.08955">
        <ele>473.09809742603</ele>
        <time>2016-07-17T07:48:10.980Z</time>
      </trkpt>
      <trkpt lat="47.80976" lon="7.08941">
        <ele>474</ele>
        <time>2016-07-17T07:48:33.980Z</time>
      </trkpt>
      <trkpt lat="47.80981" lon="7.08929">
        <ele>476</ele>
        <time>2016-07-17T07:49:05.980Z</time>
      </trkpt>
      <trkpt lat="47.80988" lon="7.08918">
        <ele>477.39599872</ele>
        <time>2016-07-17T07:49:16.980Z</time>
      </trkpt>
      <trkpt lat="47.80995" lon="7.08911">
        <ele>478.39800064</ele>
        <time>2016-07-17T07:49:23.980Z</time>
      </trkpt>
      <trkpt lat="47.81003" lon="7.08905">
        <ele>479.09799936</ele>
        <time>2016-07-17T07:49:30.980Z</time>
      </trkpt>
      <trkpt lat="47.8101" lon="7.08899">
        <ele>479.79800064</ele>
        <time>2016-07-17T07:49:37.980Z</time>
      </trkpt>
      <trkpt lat="47.81016" lon="7.08892">
        <ele>480</ele>
        <time>2016-07-17T07:49:42.980Z</time>
      </trkpt>
      <trkpt lat="47.81025" lon="7.08884">
        <ele>480.09809742603</ele>
        <time>2016-07-17T07:49:50.980Z</time>
      </trkpt>
      <trkpt lat="47.81028" lon="7.08871">
        <ele>481</ele>
        <time>2016-07-17T07:50:01.980Z</time>
      </trkpt>
      <trkpt lat="47.81033" lon="7.08847">
        <ele>481.39800064</ele>
        <time>2016-07-17T07:50:13.980Z</time>
      </trkpt>
      <trkpt lat="47.8104" lon="7.08832">
        <ele>482</ele>
        <time>2016-07-17T07:50:25.980Z</time>
      </trkpt>
      <trkpt lat="47.81043" lon="7.08815">
        <ele>482.99460096</ele>
        <time>2016-07-17T07:50:34.973Z</time>
      </trkpt>
      <trkpt lat="47.8105" lon="7.08804">
        <ele>484</ele>
        <time>2016-07-17T07:50:41.985Z</time>
      </trkpt>
      <trkpt lat="47.81056" lon="7.08791">
        <ele>484</ele>
        <time>2016-07-17T07:50:46.980Z</time>
      </trkpt>
      <trkpt lat="47.81058" lon="7.08774">
        <ele>484</ele>
        <time>2016-07-17T07:50:58.980Z</time>
      </trkpt>
      <trkpt lat="47.81062" lon="7.08764">
        <ele>484.59800064</ele>
        <time>2016-07-17T07:51:05.980Z</time>
      </trkpt>
      <trkpt lat="47.81065" lon="7.08753">
        <ele>485</ele>
        <time>2016-07-17T07:51:11.980Z</time>
      </trkpt>
      <trkpt lat="47.81067" lon="7.0874">
        <ele>485</ele>
        <time>2016-07-17T07:51:18.980Z</time>
      </trkpt>
      <trkpt lat="47.81068" lon="7.0873">
        <ele>484.50200064</ele>
        <time>2016-07-17T07:51:24.980Z</time>
      </trkpt>
      <trkpt lat="47.8107" lon="7.08719">
        <ele>484.1384</ele>
        <time>2016-07-17T07:51:31.384Z</time>
      </trkpt>
      <trkpt lat="47.81075" lon="7.08706">
        <ele>484.99800064</ele>
        <time>2016-07-17T07:51:39.980Z</time>
      </trkpt>
      <trkpt lat="47.81082" lon="7.08694">
        <ele>485.89799936</ele>
        <time>2016-07-17T07:51:48.980Z</time>
      </trkpt>
      <trkpt lat="47.81086" lon="7.08681">
        <ele>486</ele>
        <time>2016-07-17T07:52:20.980Z</time>
      </trkpt>
      <trkpt lat="47.81085" lon="7.08668">
        <ele>486</ele>
        <time>2016-07-17T07:52:43.980Z</time>
      </trkpt>
      <trkpt lat="47.81088" lon="7.08655">
        <ele>486.39800064</ele>
        <time>2016-07-17T07:52:53.980Z</time>
      </trkpt>
      <trkpt lat="47.81093" lon="7.0864">
        <ele>487.59865887741</ele>
        <time>2016-07-17T07:53:05.980Z</time>
      </trkpt>
      <trkpt lat="47.81091" lon="7.08624">
        <ele>488.99710142704</ele>
        <time>2016-07-17T07:53:14.980Z</time>
      </trkpt>
      <trkpt lat="47.81093" lon="7.0861">
        <ele>490.19599872</ele>
        <time>2016-07-17T07:53:30.980Z</time>
      </trkpt>
      <trkpt lat="47.81091" lon="7.08595">
        <ele>492</ele>
        <time>2016-07-17T07:54:12.980Z</time>
      </trkpt>
      <trkpt lat="47.8109" lon="7.08582">
        <ele>492</ele>
        <time>2016-07-17T07:54:23.980Z</time>
      </trkpt>
      <trkpt lat="47.81089" lon="7.0857">
        <ele>492.39839891142</ele>
        <time>2016-07-17T07:54:33.980Z</time>
      </trkpt>
      <trkpt lat="47.8109" lon="7.08554">
        <ele>493.99700139764</ele>
        <time>2016-07-17T07:54:44.980Z</time>
      </trkpt>
      <trkpt lat="47.81092" lon="7.08539">
        <ele>495.39800064</ele>
        <time>2016-07-17T07:54:53.980Z</time>
      </trkpt>
      <trkpt lat="47.81097" lon="7.08527">
        <ele>496.39600128</ele>
        <time>2016-07-17T07:55:01.980Z</time>
      </trkpt>
      <trkpt lat="47.81108" lon="7.08504">
        <ele>498.78931789062</ele>
        <time>2016-07-17T07:55:17.980Z</time>
      </trkpt>
      <trkpt lat="47.81105" lon="7.08489">
        <ele>499.89686484024</ele>
        <time>2016-07-17T07:55:28.980Z</time>
      </trkpt>
      <trkpt lat="47.81099" lon="7.08477">
        <ele>501.39599872</ele>
        <time>2016-07-17T07:55:36.980Z</time>
      </trkpt>
      <trkpt lat="47.81098" lon="7.08462">
        <ele>503.09799936</ele>
        <time>2016-07-17T07:55:50.980Z</time>
      </trkpt>
      <trkpt lat="47.81088" lon="7.08453">
        <ele>505.19199744</ele>
        <time>2016-07-17T07:56:02.980Z</time>
      </trkpt>
      <trkpt lat="47.81079" lon="7.08445">
        <ele>508</ele>
        <time>2016-07-17T07:56:11.980Z</time>
      </trkpt>
      <trkpt lat="47.81075" lon="7.08432">
        <ele>509.19600128</ele>
        <time>2016-07-17T07:56:25.980Z</time>
      </trkpt>
      <trkpt lat="47.81063" lon="7.08421">
        <ele>510</ele>
        <time>2016-07-17T07:56:39.980Z</time>
      </trkpt>
      <trkpt lat="47.81053" lon="7.08419">
        <ele>510</ele>
        <time>2016-07-17T07:56:49.980Z</time>
      </trkpt>
      <trkpt lat="47.81041" lon="7.08413">
        <ele>512.49850069882</ele>
        <time>2016-07-17T07:57:04.980Z</time>
      </trkpt>
      <trkpt lat="47.81027" lon="7.08406">
        <ele>513</ele>
        <time>2016-07-17T07:57:16.980Z</time>
      </trkpt>
      <trkpt lat="47.81016" lon="7.08406">
        <ele>513.69799936</ele>
        <time>2016-07-17T07:57:26.980Z</time>
      </trkpt>
      <trkpt lat="47.81006" lon="7.08404">
        <ele>514</ele>
        <time>2016-07-17T07:57:36.980Z</time>
      </trkpt>
      <trkpt lat="47.80996" lon="7.08401">
        <ele>514.39600128</ele>
        <time>2016-07-17T07:57:41.980Z</time>
      </trkpt>
      <trkpt lat="47.80986" lon="7.08396">
        <ele>516.49799936</ele>
        <time>2016-07-17T07:57:54.980Z</time>
      </trkpt>
      <trkpt lat="47.80983" lon="7.08382">
        <ele>517.49799936</ele>
        <time>2016-07-17T07:58:04.980Z</time>
      </trkpt>
      <trkpt lat="47.80982" lon="7.08367">
        <ele>518.39800064</ele>
        <time>2016-07-17T07:58:13.980Z</time>
      </trkpt>
      <trkpt lat="47.80985" lon="7.08352">
        <ele>519.39800064</ele>
        <time>2016-07-17T07:58:23.980Z</time>
      </trkpt>
      <trkpt lat="47.80986" lon="7.0834">
        <ele>520.49799936</ele>
        <time>2016-07-17T07:58:34.980Z</time>
      </trkpt>
      <trkpt lat="47.80987" lon="7.08322">
        <ele>521</ele>
        <time>2016-07-17T07:58:44.980Z</time>
      </trkpt>
      <trkpt lat="47.8099" lon="7.083">
        <ele>522.39599872</ele>
        <time>2016-07-17T07:58:56.980Z</time>
      </trkpt>
      <trkpt lat="47.80989" lon="7.08285">
        <ele>523</ele>
        <time>2016-07-17T07:59:03.980Z</time>
      </trkpt>
      <trkpt lat="47.8099" lon="7.0827">
        <ele>523.09799936</ele>
        <time>2016-07-17T07:59:10.980Z</time>
      </trkpt>
      <trkpt lat="47.8099" lon="7.08254">
        <ele>523.99800064</ele>
        <time>2016-07-17T07:59:19.980Z</time>
      </trkpt>
      <trkpt lat="47.80989" lon="7.0824">
        <ele>524</ele>
        <time>2016-07-17T07:59:27.980Z</time>
      </trkpt>
      <trkpt lat="47.80991" lon="7.08227">
        <ele>523.40199936</ele>
        <time>2016-07-17T07:59:35.980Z</time>
      </trkpt>
      <trkpt lat="47.80992" lon="7.08215">
        <ele>523.39600128</ele>
        <time>2016-07-17T07:59:41.980Z</time>
      </trkpt>
      <trkpt lat="47.80994" lon="7.082">
        <ele>525</ele>
        <time>2016-07-17T07:59:51.980Z</time>
      </trkpt>
      <trkpt lat="47.80993" lon="7.08184">
        <ele>525.19800064</ele>
        <time>2016-07-17T08:00:01.980Z</time>
      </trkpt>
      <trkpt lat="47.80996" lon="7.08169">
        <ele>525.89799936</ele>
        <time>2016-07-17T08:00:08.980Z</time>
      </trkpt>
      <trkpt lat="47.80997" lon="7.08154">
        <ele>526</ele>
        <time>2016-07-17T08:00:15.980Z</time>
      </trkpt>
      <trkpt lat="47.80996" lon="7.08138">
        <ele>526.49799936</ele>
        <time>2016-07-17T08:00:24.980Z</time>
      </trkpt>
      <trkpt lat="47.81001" lon="7.08125">
        <ele>527.29799936</ele>
        <time>2016-07-17T08:00:32.980Z</time>
      </trkpt>
      <trkpt lat="47.81002" lon="7.08109">
        <ele>528</ele>
        <time>2016-07-17T08:00:40.980Z</time>
      </trkpt>
      <trkpt lat="47.81001" lon="7.08092">
        <ele>528.09799936</ele>
        <time>2016-07-17T08:00:50.980Z</time>
      </trkpt>
      <trkpt lat="47.80999" lon="7.08077">
        <ele>528.99800064</ele>
        <time>2016-07-17T08:00:59.980Z</time>
      </trkpt>
      <trkpt lat="47.80997" lon="7.08062">
        <ele>529</ele>
        <time>2016-07-17T08:01:06.980Z</time>
      </trkpt>
      <trkpt lat="47.80999" lon="7.08046">
        <ele>529</ele>
        <time>2016-07-17T08:01:15.980Z</time>
      </trkpt>
      <trkpt lat="47.81002" lon="7.08031">
        <ele>529.39800064</ele>
        <time>2016-07-17T08:01:23.980Z</time>
      </trkpt>
      <trkpt lat="47.81001" lon="7.08015">
        <ele>530.29799936</ele>
        <time>2016-07-17T08:01:32.980Z</time>
      </trkpt>
      <trkpt lat="47.81004" lon="7.07999">
        <ele>531</ele>
        <time>2016-07-17T08:01:42.980Z</time>
      </trkpt>
      <trkpt lat="47.80993" lon="7.0797">
        <ele>531.39701537019</ele>
        <time>2016-07-17T08:01:53.980Z</time>
      </trkpt>
      <trkpt lat="47.81002" lon="7.07961">
        <ele>532.18875373494</ele>
        <time>2016-07-17T08:02:00.980Z</time>
      </trkpt>
      <trkpt lat="47.81006" lon="7.07947">
        <ele>534.49799936</ele>
        <time>2016-07-17T08:02:14.980Z</time>
      </trkpt>
      <trkpt lat="47.81001" lon="7.07934">
        <ele>535</ele>
        <time>2016-07-17T08:02:24.980Z</time>
      </trkpt>
      <trkpt lat="47.80997" lon="7.07919">
        <ele>535.19800064</ele>
        <time>2016-07-17T08:02:31.980Z</time>
      </trkpt>
      <trkpt lat="47.80995" lon="7.07903">
        <ele>535.99800064</ele>
        <time>2016-07-17T08:02:39.980Z</time>
      </trkpt>
      <trkpt lat="47.80991" lon="7.07889">
        <ele>536</ele>
        <time>2016-07-17T08:02:47.980Z</time>
      </trkpt>
      <trkpt lat="47.8099" lon="7.07874">
        <ele>537.39599872</ele>
        <time>2016-07-17T08:02:56.980Z</time>
      </trkpt>
      <trkpt lat="47.8099" lon="7.07858">
        <ele>538.69799936</ele>
        <time>2016-07-17T08:03:06.980Z</time>
      </trkpt>
      <trkpt lat="47.80987" lon="7.07843">
        <ele>539.59800064</ele>
        <time>2016-07-17T08:03:15.980Z</time>
      </trkpt>
      <trkpt lat="47.80985" lon="7.07828">
        <ele>540.99599872</ele>
        <time>2016-07-17T08:03:24.980Z</time>
      </trkpt>
      <trkpt lat="47.80983" lon="7.07812">
        <ele>542.69799936</ele>
        <time>2016-07-17T08:03:36.980Z</time>
      </trkpt>
      <trkpt lat="47.80979" lon="7.07798">
        <ele>543.89799936</ele>
        <time>2016-07-17T08:03:48.980Z</time>
      </trkpt>
      <trkpt lat="47.80974" lon="7.07785">
        <ele>544</ele>
        <time>2016-07-17T08:03:59.980Z</time>
      </trkpt>
      <trkpt lat="47.80972" lon="7.0777">
        <ele>544</ele>
        <time>2016-07-17T08:04:07.980Z</time>
      </trkpt>
      <trkpt lat="47.80969" lon="7.07756">
        <ele>544</ele>
        <time>2016-07-17T08:04:14.980Z</time>
      </trkpt>
      <trkpt lat="47.80966" lon="7.07741">
        <ele>544</ele>
        <time>2016-07-17T08:04:20.980Z</time>
      </trkpt>
      <trkpt lat="47.80964" lon="7.07729">
        <ele>544</ele>
        <time>2016-07-17T08:04:26.980Z</time>
      </trkpt>
      <trkpt lat="47.8096" lon="7.07719">
        <ele>543.80199936</ele>
        <time>2016-07-17T08:04:31.980Z</time>
      </trkpt>
      <trkpt lat="47.80957" lon="7.07707">
        <ele>543.30200064</ele>
        <time>2016-07-17T08:04:36.980Z</time>
      </trkpt>
      <trkpt lat="47.80955" lon="7.07695">
        <ele>543</ele>
        <time>2016-07-17T08:04:41.980Z</time>
      </trkpt>
      <trkpt lat="47.80951" lon="7.07684">
        <ele>543</ele>
        <time>2016-07-17T08:04:48.980Z</time>
      </trkpt>
      <trkpt lat="47.80945" lon="7.07672">
        <ele>543.69799936</ele>
        <time>2016-07-17T08:04:56.980Z</time>
      </trkpt>
      <trkpt lat="47.80939" lon="7.07661">
        <ele>544</ele>
        <time>2016-07-17T08:05:03.980Z</time>
      </trkpt>
      <trkpt lat="47.80936" lon="7.07651">
        <ele>544</ele>
        <time>2016-07-17T08:05:09.980Z</time>
      </trkpt>
      <trkpt lat="47.80931" lon="7.0764">
        <ele>544</ele>
        <time>2016-07-17T08:05:15.980Z</time>
      </trkpt>
      <trkpt lat="47.80928" lon="7.0763">
        <ele>544</ele>
        <time>2016-07-17T08:05:20.980Z</time>
      </trkpt>
      <trkpt lat="47.80926" lon="7.07618">
        <ele>544</ele>
        <time>2016-07-17T08:05:27.981Z</time>
      </trkpt>
      <trkpt lat="47.80924" lon="7.07606">
        <ele>544</ele>
        <time>2016-07-17T08:05:33.980Z</time>
      </trkpt>
      <trkpt lat="47.80925" lon="7.07589">
        <ele>544</ele>
        <time>2016-07-17T08:05:42.980Z</time>
      </trkpt>
      <trkpt lat="47.80925" lon="7.07571">
        <ele>544</ele>
        <time>2016-07-17T08:05:48.980Z</time>
      </trkpt>
      <trkpt lat="47.80925" lon="7.07553">
        <ele>544</ele>
        <time>2016-07-17T08:05:54.980Z</time>
      </trkpt>
      <trkpt lat="47.80928" lon="7.07537">
        <ele>544.29799936</ele>
        <time>2016-07-17T08:06:02.980Z</time>
      </trkpt>
      <trkpt lat="47.81106" lon="7.07065">
        <ele>570.89810122617</ele>
        <time>2016-07-17T08:13:38.980Z</time>
      </trkpt>
      <trkpt lat="47.81118" lon="7.07061">
        <ele>571</ele>
        <time>2016-07-17T08:13:43.980Z</time>
      </trkpt>
      <trkpt lat="47.81125" lon="7.0705">
        <ele>571.09799936</ele>
        <time>2016-07-17T08:13:50.980Z</time>
      </trkpt>
      <trkpt lat="47.81131" lon="7.07042">
        <ele>571.79859968</ele>
        <time>2016-07-17T08:13:57.986Z</time>
      </trkpt>
      <trkpt lat="47.81138" lon="7.07029">
        <ele>572</ele>
        <time>2016-07-17T08:14:04.980Z</time>
      </trkpt>
      <trkpt lat="47.81146" lon="7.07019">
        <ele>573.19600128</ele>
        <time>2016-07-17T08:14:15.980Z</time>
      </trkpt>
      <trkpt lat="47.81156" lon="7.07011">
        <ele>575.19800064</ele>
        <time>2016-07-17T08:14:31.980Z</time>
      </trkpt>
      <trkpt lat="47.81166" lon="7.07011">
        <ele>575.99800064</ele>
        <time>2016-07-17T08:14:39.980Z</time>
      </trkpt>
      <trkpt lat="47.81178" lon="7.07007">
        <ele>576.89799936</ele>
        <time>2016-07-17T08:14:48.980Z</time>
      </trkpt>
      <trkpt lat="47.81186" lon="7.07">
        <ele>577</ele>
        <time>2016-07-17T08:14:55.980Z</time>
      </trkpt>
      <trkpt lat="47.81197" lon="7.06997">
        <ele>577.1978029004</ele>
        <time>2016-07-17T08:15:01.980Z</time>
      </trkpt>
      <trkpt lat="47.81204" lon="7.06989">
        <ele>578.09709674568</ele>
        <time>2016-07-17T08:15:10.980Z</time>
      </trkpt>
      <trkpt lat="47.81213" lon="7.06983">
        <ele>578.89789728996</ele>
        <time>2016-07-17T08:15:18.980Z</time>
      </trkpt>
      <trkpt lat="47.81222" lon="7.06975">
        <ele>579</ele>
        <time>2016-07-17T08:15:26.980Z</time>
      </trkpt>
      <trkpt lat="47.81231" lon="7.06967">
        <ele>579.79800064</ele>
        <time>2016-07-17T08:15:37.980Z</time>
      </trkpt>
      <trkpt lat="47.8124" lon="7.0696">
        <ele>580.69799936</ele>
        <time>2016-07-17T08:15:46.980Z</time>
      </trkpt>
      <trkpt lat="47.81249" lon="7.0695">
        <ele>581.59800064</ele>
        <time>2016-07-17T08:15:55.980Z</time>
      </trkpt>
      <trkpt lat="47.81253" lon="7.06934">
        <ele>582</ele>
        <time>2016-07-17T08:16:04.980Z</time>
      </trkpt>
      <trkpt lat="47.81258" lon="7.06918">
        <ele>582.39800064</ele>
        <time>2016-07-17T08:16:13.980Z</time>
      </trkpt>
      <trkpt lat="47.81258" lon="7.06902">
        <ele>582.99800064</ele>
        <time>2016-07-17T08:16:19.980Z</time>
      </trkpt>
      <trkpt lat="47.81258" lon="7.0689">
        <ele>583.69799936</ele>
        <time>2016-07-17T08:16:26.980Z</time>
      </trkpt>
      <trkpt lat="47.81261" lon="7.06875">
        <ele>584.79800064</ele>
        <time>2016-07-17T08:16:37.980Z</time>
      </trkpt>
      <trkpt lat="47.81265" lon="7.06862">
        <ele>585.39800064</ele>
        <time>2016-07-17T08:16:43.980Z</time>
      </trkpt>
      <trkpt lat="47.81267" lon="7.06847">
        <ele>586</ele>
        <time>2016-07-17T08:16:53.980Z</time>
      </trkpt>
      <trkpt lat="47.81273" lon="7.06835">
        <ele>586.59599872</ele>
        <time>2016-07-17T08:17:02.980Z</time>
      </trkpt>
      <trkpt lat="47.81276" lon="7.06823">
        <ele>587.99600128</ele>
        <time>2016-07-17T08:17:09.980Z</time>
      </trkpt>
      <trkpt lat="47.81282" lon="7.06809">
        <ele>588.79800064</ele>
        <time>2016-07-17T08:17:17.980Z</time>
      </trkpt>
      <trkpt lat="47.81292" lon="7.068">
        <ele>589</ele>
        <time>2016-07-17T08:17:23.980Z</time>
      </trkpt>
      <trkpt lat="47.81299" lon="7.06791">
        <ele>589</ele>
        <time>2016-07-17T08:17:29.978Z</time>
      </trkpt>
      <trkpt lat="47.81309" lon="7.06773">
        <ele>589.99700139764</ele>
        <time>2016-07-17T08:17:44.980Z</time>
      </trkpt>
      <trkpt lat="47.81315" lon="7.06761">
        <ele>591.79600128</ele>
        <time>2016-07-17T08:17:53.980Z</time>
      </trkpt>
      <trkpt lat="47.81315" lon="7.06746">
        <ele>593</ele>
        <time>2016-07-17T08:18:04.980Z</time>
      </trkpt>
      <trkpt lat="47.81326" lon="7.06749">
        <ele>593</ele>
        <time>2016-07-17T08:18:09.980Z</time>
      </trkpt>
      <trkpt lat="47.81336" lon="7.06742">
        <ele>593</ele>
        <time>2016-07-17T08:18:17.980Z</time>
      </trkpt>
      <trkpt lat="47.81346" lon="7.06737">
        <ele>593.69799936</ele>
        <time>2016-07-17T08:18:26.980Z</time>
      </trkpt>
      <trkpt lat="47.81353" lon="7.06725">
        <ele>594.49799936</ele>
        <time>2016-07-17T08:18:34.980Z</time>
      </trkpt>
      <trkpt lat="47.81363" lon="7.0672">
        <ele>595.49799936</ele>
        <time>2016-07-17T08:18:44.980Z</time>
      </trkpt>
      <trkpt lat="47.81372" lon="7.06713">
        <ele>596.59800064</ele>
        <time>2016-07-17T08:18:55.980Z</time>
      </trkpt>
      <trkpt lat="47.81383" lon="7.06709">
        <ele>597.59800064</ele>
        <time>2016-07-17T08:19:05.980Z</time>
      </trkpt>
      <trkpt lat="47.81393" lon="7.06707">
        <ele>598</ele>
        <time>2016-07-17T08:19:14.980Z</time>
      </trkpt>
      <trkpt lat="47.81404" lon="7.06709">
        <ele>598.29799936</ele>
        <time>2016-07-17T08:19:22.980Z</time>
      </trkpt>
      <trkpt lat="47.81415" lon="7.06708">
        <ele>598.99800064</ele>
        <time>2016-07-17T08:19:29.980Z</time>
      </trkpt>
      <trkpt lat="47.81426" lon="7.0671">
        <ele>599</ele>
        <time>2016-07-17T08:19:37.980Z</time>
      </trkpt>
      <trkpt lat="47.81436" lon="7.06708">
        <ele>599.49799936</ele>
        <time>2016-07-17T08:19:44.980Z</time>
      </trkpt>
      <trkpt lat="47.81445" lon="7.06704">
        <ele>600</ele>
        <time>2016-07-17T08:19:57.980Z</time>
      </trkpt>
      <trkpt lat="47.81455" lon="7.06698">
        <ele>600.59800064</ele>
        <time>2016-07-17T08:20:05.980Z</time>
      </trkpt>
      <trkpt lat="47.81465" lon="7.06691">
        <ele>601</ele>
        <time>2016-07-17T08:20:10.980Z</time>
      </trkpt>
      <trkpt lat="47.81474" lon="7.06685">
        <ele>601</ele>
        <time>2016-07-17T08:20:16.980Z</time>
      </trkpt>
      <trkpt lat="47.81484" lon="7.0668">
        <ele>601</ele>
        <time>2016-07-17T08:20:23.980Z</time>
      </trkpt>
      <trkpt lat="47.81495" lon="7.06674">
        <ele>601</ele>
        <time>2016-07-17T08:20:31.980Z</time>
      </trkpt>
      <trkpt lat="47.81505" lon="7.0667">
        <ele>601</ele>
        <time>2016-07-17T08:20:41.980Z</time>
      </trkpt>
      <trkpt lat="47.81514" lon="7.06663">
        <ele>601</ele>
        <time>2016-07-17T08:20:48.980Z</time>
      </trkpt>
      <trkpt lat="47.81522" lon="7.06654">
        <ele>601.69799936</ele>
        <time>2016-07-17T08:20:56.980Z</time>
      </trkpt>
      <trkpt lat="47.81528" lon="7.06642">
        <ele>602</ele>
        <time>2016-07-17T08:21:03.980Z</time>
      </trkpt>
      <trkpt lat="47.81535" lon="7.0663">
        <ele>602</ele>
        <time>2016-07-17T08:21:09.980Z</time>
      </trkpt>
      <trkpt lat="47.8154" lon="7.06618">
        <ele>602.69799936</ele>
        <time>2016-07-17T08:21:16.980Z</time>
      </trkpt>
      <trkpt lat="47.81545" lon="7.06609">
        <ele>603</ele>
        <time>2016-07-17T08:21:23.980Z</time>
      </trkpt>
      <trkpt lat="47.81548" lon="7.06597">
        <ele>603</ele>
        <time>2016-07-17T08:21:29.980Z</time>
      </trkpt>
      <trkpt lat="47.81552" lon="7.06585">
        <ele>603</ele>
        <time>2016-07-17T08:21:36.980Z</time>
      </trkpt>
      <trkpt lat="47.81554" lon="7.06574">
        <ele>603.39800064</ele>
        <time>2016-07-17T08:21:43.980Z</time>
      </trkpt>
      <trkpt lat="47.81555" lon="7.06562">
        <ele>603.99800064</ele>
        <time>2016-07-17T08:21:49.980Z</time>
      </trkpt>
      <trkpt lat="47.81556" lon="7.06551">
        <ele>604.59800064</ele>
        <time>2016-07-17T08:21:55.980Z</time>
      </trkpt>
      <trkpt lat="47.81558" lon="7.06535">
        <ele>605</ele>
        <time>2016-07-17T08:22:04.988Z</time>
      </trkpt>
      <trkpt lat="47.81558" lon="7.06519">
        <ele>605.99700139764</ele>
        <time>2016-07-17T08:22:14.980Z</time>
      </trkpt>
      <trkpt lat="47.81556" lon="7.06503">
        <ele>607.39800064</ele>
        <time>2016-07-17T08:22:23.980Z</time>
      </trkpt>
      <trkpt lat="47.81561" lon="7.06488">
        <ele>607.99800064</ele>
        <time>2016-07-17T08:22:29.980Z</time>
      </trkpt>
      <trkpt lat="47.81562" lon="7.06476">
        <ele>607.50200064</ele>
        <time>2016-07-17T08:22:34.980Z</time>
      </trkpt>
      <trkpt lat="47.81561" lon="7.06462">
        <ele>606.90200064</ele>
        <time>2016-07-17T08:22:40.980Z</time>
      </trkpt>
      <trkpt lat="47.81555" lon="7.06435">
        <ele>606.69799936</ele>
        <time>2016-07-17T08:22:56.980Z</time>
      </trkpt>
      <trkpt lat="47.81552" lon="7.0642">
        <ele>608</ele>
        <time>2016-07-17T08:23:12.980Z</time>
      </trkpt>
      <trkpt lat="47.81546" lon="7.06407">
        <ele>608</ele>
        <time>2016-07-17T08:23:22.980Z</time>
      </trkpt>
      <trkpt lat="47.81547" lon="7.06392">
        <ele>608.29799936</ele>
        <time>2016-07-17T08:23:52.980Z</time>
      </trkpt>
      <trkpt lat="47.81542" lon="7.06379">
        <ele>609</ele>
        <time>2016-07-17T08:24:04.980Z</time>
      </trkpt>
      <trkpt lat="47.81538" lon="7.06365">
        <ele>609</ele>
        <time>2016-07-17T08:24:16.980Z</time>
      </trkpt>
      <trkpt lat="47.81531" lon="7.06352">
        <ele>609</ele>
        <time>2016-07-17T08:24:23.980Z</time>
      </trkpt>
      <trkpt lat="47.81526" lon="7.06338">
        <ele>609</ele>
        <time>2016-07-17T08:24:31.980Z</time>
      </trkpt>
      <trkpt lat="47.81521" lon="7.06324">
        <ele>609</ele>
        <time>2016-07-17T08:24:37.980Z</time>
      </trkpt>
      <trkpt lat="47.81516" lon="7.0631">
        <ele>609.59800064</ele>
        <time>2016-07-17T08:24:45.980Z</time>
      </trkpt>
      <trkpt lat="47.8151" lon="7.06295">
        <ele>610</ele>
        <time>2016-07-17T08:24:55.980Z</time>
      </trkpt>
      <trkpt lat="47.81504" lon="7.06281">
        <ele>610.39800064</ele>
        <time>2016-07-17T08:25:03.980Z</time>
      </trkpt>
      <trkpt lat="47.81501" lon="7.06266">
        <ele>611</ele>
        <time>2016-07-17T08:25:15.980Z</time>
      </trkpt>
      <trkpt lat="47.81497" lon="7.06252">
        <ele>611</ele>
        <time>2016-07-17T08:25:23.980Z</time>
      </trkpt>
      <trkpt lat="47.81494" lon="7.06238">
        <ele>610.80199936</ele>
        <time>2016-07-17T08:25:31.980Z</time>
      </trkpt>
      <trkpt lat="47.81491" lon="7.06223">
        <ele>610.20199936</ele>
        <time>2016-07-17T08:25:37.980Z</time>
      </trkpt>
      <trkpt lat="47.81489" lon="7.06208">
        <ele>610.29799936</ele>
        <time>2016-07-17T08:25:42.980Z</time>
      </trkpt>
      <trkpt lat="47.81484" lon="7.06176">
        <ele>611</ele>
        <time>2016-07-17T08:25:51.980Z</time>
      </trkpt>
      <trkpt lat="47.8148" lon="7.0616">
        <ele>611</ele>
        <time>2016-07-17T08:25:57.980Z</time>
      </trkpt>
      <trkpt lat="47.81477" lon="7.06146">
        <ele>610.70200064</ele>
        <time>2016-07-17T08:26:02.980Z</time>
      </trkpt>
      <trkpt lat="47.81474" lon="7.06131">
        <ele>610.10200064</ele>
        <time>2016-07-17T08:26:08.980Z</time>
      </trkpt>
      <trkpt lat="47.81471" lon="7.06117">
        <ele>610.49799936</ele>
        <time>2016-07-17T08:26:14.980Z</time>
      </trkpt>
      <trkpt lat="47.81436" lon="7.05966">
        <ele>611</ele>
        <time>2016-07-17T08:27:37.980Z</time>
      </trkpt>
      <trkpt lat="47.81436" lon="7.05949">
        <ele>611</ele>
        <time>2016-07-17T08:27:44.980Z</time>
      </trkpt>
      <trkpt lat="47.81434" lon="7.05935">
        <ele>611</ele>
        <time>2016-07-17T08:27:50.980Z</time>
      </trkpt>
      <trkpt lat="47.81432" lon="7.0592">
        <ele>611</ele>
        <time>2016-07-17T08:27:57.980Z</time>
      </trkpt>
      <trkpt lat="47.81429" lon="7.05905">
        <ele>612.09799936</ele>
        <time>2016-07-17T08:28:10.980Z</time>
      </trkpt>
      <trkpt lat="47.81429" lon="7.0589">
        <ele>613.39600128</ele>
        <time>2016-07-17T08:28:21.980Z</time>
      </trkpt>
      <trkpt lat="47.81429" lon="7.05875">
        <ele>614.99600128</ele>
        <time>2016-07-17T08:28:29.980Z</time>
      </trkpt>
      <trkpt lat="47.81428" lon="7.05859">
        <ele>615.79800064</ele>
        <time>2016-07-17T08:28:37.980Z</time>
      </trkpt>
      <trkpt lat="47.81424" lon="7.05845">
        <ele>617</ele>
        <time>2016-07-17T08:29:03.980Z</time>
      </trkpt>
      <trkpt lat="47.81417" lon="7.05835">
        <ele>618</ele>
        <time>2016-07-17T08:29:20.980Z</time>
      </trkpt>
      <trkpt lat="47.81408" lon="7.0583">
        <ele>619.39599872</ele>
        <time>2016-07-17T08:29:36.980Z</time>
      </trkpt>
      <trkpt lat="47.81399" lon="7.05827">
        <ele>620.29799936</ele>
        <time>2016-07-17T08:29:52.980Z</time>
      </trkpt>
      <trkpt lat="47.8139" lon="7.05823">
        <ele>621</ele>
        <time>2016-07-17T08:30:09.980Z</time>
      </trkpt>
      <trkpt lat="47.81383" lon="7.05815">
        <ele>623.09799936</ele>
        <time>2016-07-17T08:30:20.980Z</time>
      </trkpt>
      <trkpt lat="47.81373" lon="7.05811">
        <ele>624.79600128</ele>
        <time>2016-07-17T08:30:33.980Z</time>
      </trkpt>
      <trkpt lat="47.81365" lon="7.058">
        <ele>626.39800064</ele>
        <time>2016-07-17T08:30:43.980Z</time>
      </trkpt>
      <trkpt lat="47.81356" lon="7.05796">
        <ele>630</ele>
        <time>2016-07-17T08:31:16.980Z</time>
      </trkpt>
      <trkpt lat="47.81349" lon="7.05799">
        <ele>630.49799936</ele>
        <time>2016-07-17T08:31:24.980Z</time>
      </trkpt>
      <trkpt lat="47.81342" lon="7.05804">
        <ele>631.09809742603</ele>
        <time>2016-07-17T08:31:30.980Z</time>
      </trkpt>
      <trkpt lat="47.8133" lon="7.05809">
        <ele>632.39560068591</ele>
        <time>2016-07-17T08:31:40.980Z</time>
      </trkpt>
      <trkpt lat="47.81323" lon="7.05816">
        <ele>636</ele>
        <time>2016-07-17T08:31:54.980Z</time>
      </trkpt>
      <trkpt lat="47.81317" lon="7.05821">
        <ele>636.59800064</ele>
        <time>2016-07-17T08:32:05.980Z</time>
      </trkpt>
      <trkpt lat="47.81311" lon="7.05826">
        <ele>637.79600128</ele>
        <time>2016-07-17T08:32:13.980Z</time>
      </trkpt>
      <trkpt lat="47.81304" lon="7.0582">
        <ele>639.79279510141</ele>
        <time>2016-07-17T08:32:21.980Z</time>
      </trkpt>
      <trkpt lat="47.81303" lon="7.05804">
        <ele>643.09890017148</ele>
        <time>2016-07-17T08:32:30.980Z</time>
      </trkpt>
      <trkpt lat="47.81303" lon="7.05789">
        <ele>643.79820237305</ele>
        <time>2016-07-17T08:32:37.980Z</time>
      </trkpt>
      <trkpt lat="47.81302" lon="7.05774">
        <ele>644.79800064</ele>
        <time>2016-07-17T08:32:47.980Z</time>
      </trkpt>
      <trkpt lat="47.81306" lon="7.05761">
        <ele>645.69799936</ele>
        <time>2016-07-17T08:32:56.980Z</time>
      </trkpt>
      <trkpt lat="47.81314" lon="7.05753">
        <ele>648.19800064</ele>
        <time>2016-07-17T08:33:11.980Z</time>
      </trkpt>
      <trkpt lat="47.81317" lon="7.0574">
        <ele>649</ele>
        <time>2016-07-17T08:33:22.980Z</time>
      </trkpt>
      <trkpt lat="47.81319" lon="7.05726">
        <ele>649.79600128</ele>
        <time>2016-07-17T08:33:33.980Z</time>
      </trkpt>
      <trkpt lat="47.81326" lon="7.05715">
        <ele>651.59800064</ele>
        <time>2016-07-17T08:33:45.980Z</time>
      </trkpt>
      <trkpt lat="47.81328" lon="7.05702">
        <ele>652.79800064</ele>
        <time>2016-07-17T08:33:57.980Z</time>
      </trkpt>
      <trkpt lat="47.81335" lon="7.05689">
        <ele>654.39599872</ele>
        <time>2016-07-17T08:34:06.980Z</time>
      </trkpt>
      <trkpt lat="47.8134" lon="7.05677">
        <ele>655.39800064</ele>
        <time>2016-07-17T08:34:13.980Z</time>
      </trkpt>
      <trkpt lat="47.81345" lon="7.05665">
        <ele>656.59599872</ele>
        <time>2016-07-17T08:34:22.980Z</time>
      </trkpt>
      <trkpt lat="47.8135" lon="7.05652">
        <ele>658.39600128</ele>
        <time>2016-07-17T08:34:31.980Z</time>
      </trkpt>
      <trkpt lat="47.81353" lon="7.05638">
        <ele>660.49799936</ele>
        <time>2016-07-17T08:34:44.980Z</time>
      </trkpt>
      <trkpt lat="47.81358" lon="7.05625">
        <ele>662.79800064</ele>
        <time>2016-07-17T08:35:07.980Z</time>
      </trkpt>
      <trkpt lat="47.81361" lon="7.0561">
        <ele>664.19800064</ele>
        <time>2016-07-17T08:35:21.980Z</time>
      </trkpt>
      <trkpt lat="47.81363" lon="7.05596">
        <ele>665.79600128</ele>
        <time>2016-07-17T08:35:33.980Z</time>
      </trkpt>
      <trkpt lat="47.81363" lon="7.05582">
        <ele>668.49399808</ele>
        <time>2016-07-17T08:35:44.980Z</time>
      </trkpt>
      <trkpt lat="47.81362" lon="7.05568">
        <ele>670.39800064</ele>
        <time>2016-07-17T08:35:53.980Z</time>
      </trkpt>
      <trkpt lat="47.81363" lon="7.05554">
        <ele>672.39599872</ele>
        <time>2016-07-17T08:36:06.980Z</time>
      </trkpt>
      <trkpt lat="47.81364" lon="7.05541">
        <ele>676.19600128</ele>
        <time>2016-07-17T08:36:25.980Z</time>
      </trkpt>
      <trkpt lat="47.81363" lon="7.05527">
        <ele>678.99600128</ele>
        <time>2016-07-17T08:36:39.980Z</time>
      </trkpt>
      <trkpt lat="47.8136" lon="7.05511">
        <ele>682.99600128</ele>
        <time>2016-07-17T08:36:59.980Z</time>
      </trkpt>
      <trkpt lat="47.81353" lon="7.055">
        <ele>685.99599872</ele>
        <time>2016-07-17T08:37:24.980Z</time>
      </trkpt>
      <trkpt lat="47.81347" lon="7.05484">
        <ele>688.19900032</ele>
        <time>2016-07-17T08:37:51.980Z</time>
      </trkpt>
      <trkpt lat="47.81342" lon="7.05477">
        <ele>688.79900032</ele>
        <time>2016-07-17T08:37:57.980Z</time>
      </trkpt>
      <trkpt lat="47.81335" lon="7.05466">
        <ele>691</ele>
        <time>2016-07-17T08:38:13.980Z</time>
      </trkpt>
      <trkpt lat="47.81329" lon="7.05455">
        <ele>691.39600128</ele>
        <time>2016-07-17T08:38:21.980Z</time>
      </trkpt>
      <trkpt lat="47.81325" lon="7.05445">
        <ele>692.59600128</ele>
        <time>2016-07-17T08:38:27.980Z</time>
      </trkpt>
      <trkpt lat="47.81321" lon="7.05433">
        <ele>693</ele>
        <time>2016-07-17T08:38:35.980Z</time>
      </trkpt>
      <trkpt lat="47.81316" lon="7.05422">
        <ele>693.49799936</ele>
        <time>2016-07-17T08:38:44.980Z</time>
      </trkpt>
      <trkpt lat="47.81309" lon="7.05411">
        <ele>694.79600128</ele>
        <time>2016-07-17T08:38:53.980Z</time>
      </trkpt>
      <trkpt lat="47.81304" lon="7.05397">
        <ele>696.69869783425</ele>
        <time>2016-07-17T08:39:06.980Z</time>
      </trkpt>
      <trkpt lat="47.81296" lon="7.05384">
        <ele>698.9841112265</ele>
        <time>2016-07-17T08:39:19.980Z</time>
      </trkpt>
      <trkpt lat="47.81291" lon="7.05371">
        <ele>700.19800064</ele>
        <time>2016-07-17T08:39:31.980Z</time>
      </trkpt>
      <trkpt lat="47.81285" lon="7.05358">
        <ele>703.39200256</ele>
        <time>2016-07-17T08:39:45.980Z</time>
      </trkpt>
      <trkpt lat="47.81279" lon="7.05346">
        <ele>705.69799936</ele>
        <time>2016-07-17T08:39:56.980Z</time>
      </trkpt>
      <trkpt lat="47.81273" lon="7.05334">
        <ele>707.39599872</ele>
        <time>2016-07-17T08:40:06.980Z</time>
      </trkpt>
      <trkpt lat="47.81266" lon="7.05322">
        <ele>708.59800064</ele>
        <time>2016-07-17T08:40:15.980Z</time>
      </trkpt>
      <trkpt lat="47.81263" lon="7.05308">
        <ele>709.79800064</ele>
        <time>2016-07-17T08:40:27.980Z</time>
      </trkpt>
      <trkpt lat="47.81263" lon="7.05293">
        <ele>711.39600128</ele>
        <time>2016-07-17T08:40:41.980Z</time>
      </trkpt>
      <trkpt lat="47.81263" lon="7.05278">
        <ele>714.39600128</ele>
        <time>2016-07-17T08:41:11.980Z</time>
      </trkpt>
      <trkpt lat="47.81264" lon="7.05263">
        <ele>716</ele>
        <time>2016-07-17T08:41:23.980Z</time>
      </trkpt>
      <trkpt lat="47.81257" lon="7.05251">
        <ele>716.69799936</ele>
        <time>2016-07-17T08:41:36.980Z</time>
      </trkpt>
      <trkpt lat="47.8125" lon="7.05239">
        <ele>717.89799936</ele>
        <time>2016-07-17T08:41:48.980Z</time>
      </trkpt>
      <trkpt lat="47.81247" lon="7.05225">
        <ele>720</ele>
        <time>2016-07-17T08:42:30.980Z</time>
      </trkpt>
      <trkpt lat="47.81239" lon="7.05215">
        <ele>720</ele>
        <time>2016-07-17T08:42:49.980Z</time>
      </trkpt>
      <trkpt lat="47.81247" lon="7.05205">
        <ele>720.79600128</ele>
        <time>2016-07-17T08:44:03.980Z</time>
      </trkpt>
      <trkpt lat="47.81242" lon="7.05192">
        <ele>723.09799936</ele>
        <time>2016-07-17T08:44:20.980Z</time>
      </trkpt>
      <trkpt lat="47.81233" lon="7.0518">
        <ele>724.59800064</ele>
        <time>2016-07-17T08:44:35.980Z</time>
      </trkpt>
      <trkpt lat="47.81226" lon="7.0517">
        <ele>726.39599872</ele>
        <time>2016-07-17T08:44:46.980Z</time>
      </trkpt>
      <trkpt lat="47.81216" lon="7.05164">
        <ele>727</ele>
        <time>2016-07-17T08:44:57.980Z</time>
      </trkpt>
      <trkpt lat="47.81209" lon="7.05154">
        <ele>727.79779850321</ele>
        <time>2016-07-17T08:45:07.980Z</time>
      </trkpt>
      <trkpt lat="47.81201" lon="7.05145">
        <ele>729.59600128</ele>
        <time>2016-07-17T08:45:17.980Z</time>
      </trkpt>
      <trkpt lat="47.81193" lon="7.05136">
        <ele>730</ele>
        <time>2016-07-17T08:45:26.980Z</time>
      </trkpt>
      <trkpt lat="47.81185" lon="7.05125">
        <ele>731.19600128</ele>
        <time>2016-07-17T08:45:35.980Z</time>
      </trkpt>
      <trkpt lat="47.81177" lon="7.05113">
        <ele>732.69799936</ele>
        <time>2016-07-17T08:45:46.980Z</time>
      </trkpt>
      <trkpt lat="47.81172" lon="7.05101">
        <ele>733</ele>
        <time>2016-07-17T08:45:56.980Z</time>
      </trkpt>
      <trkpt lat="47.81165" lon="7.0509">
        <ele>733.59800064</ele>
        <time>2016-07-17T08:46:05.980Z</time>
      </trkpt>
      <trkpt lat="47.81156" lon="7.05079">
        <ele>734</ele>
        <time>2016-07-17T08:46:14.980Z</time>
      </trkpt>
      <trkpt lat="47.81149" lon="7.05068">
        <ele>734.99599872</ele>
        <time>2016-07-17T08:46:24.980Z</time>
      </trkpt>
      <trkpt lat="47.81141" lon="7.05056">
        <ele>736</ele>
        <time>2016-07-17T08:46:32.980Z</time>
      </trkpt>
      <trkpt lat="47.81131" lon="7.05044">
        <ele>736</ele>
        <time>2016-07-17T08:46:47.980Z</time>
      </trkpt>
      <trkpt lat="47.81123" lon="7.05034">
        <ele>736.99800064</ele>
        <time>2016-07-17T08:46:59.980Z</time>
      </trkpt>
      <trkpt lat="47.81112" lon="7.05024">
        <ele>737</ele>
        <time>2016-07-17T08:47:11.980Z</time>
      </trkpt>
      <trkpt lat="47.81104" lon="7.05009">
        <ele>737.39800064</ele>
        <time>2016-07-17T08:47:23.980Z</time>
      </trkpt>
      <trkpt lat="47.81095" lon="7.04998">
        <ele>738</ele>
        <time>2016-07-17T08:47:31.980Z</time>
      </trkpt>
      <trkpt lat="47.81088" lon="7.04986">
        <ele>738</ele>
        <time>2016-07-17T08:47:43.980Z</time>
      </trkpt>
      <trkpt lat="47.81081" lon="7.04973">
        <ele>738</ele>
        <time>2016-07-17T08:47:54.980Z</time>
      </trkpt>
      <trkpt lat="47.81072" lon="7.0496">
        <ele>739.59600128</ele>
        <time>2016-07-17T08:48:07.980Z</time>
      </trkpt>
      <trkpt lat="47.81065" lon="7.04943">
        <ele>740</ele>
        <time>2016-07-17T08:48:19.980Z</time>
      </trkpt>
      <trkpt lat="47.81057" lon="7.0493">
        <ele>740.39600128</ele>
        <time>2016-07-17T08:48:31.980Z</time>
      </trkpt>
      <trkpt lat="47.81047" lon="7.04916">
        <ele>742</ele>
        <time>2016-07-17T08:48:43.980Z</time>
      </trkpt>
      <trkpt lat="47.81037" lon="7.04904">
        <ele>742</ele>
        <time>2016-07-17T08:48:55.980Z</time>
      </trkpt>
      <trkpt lat="47.81028" lon="7.04897">
        <ele>742</ele>
        <time>2016-07-17T08:49:03.980Z</time>
      </trkpt>
      <trkpt lat="47.81015" lon="7.04892">
        <ele>742</ele>
        <time>2016-07-17T08:49:15.980Z</time>
      </trkpt>
      <trkpt lat="47.81005" lon="7.04887">
        <ele>742.79800064</ele>
        <time>2016-07-17T08:49:27.980Z</time>
      </trkpt>
      <trkpt lat="47.80993" lon="7.04884">
        <ele>743.99800064</ele>
        <time>2016-07-17T08:49:39.980Z</time>
      </trkpt>
      <trkpt lat="47.80978" lon="7.04878">
        <ele>744</ele>
        <time>2016-07-17T08:49:51.980Z</time>
      </trkpt>
      <trkpt lat="47.80966" lon="7.04874">
        <ele>744</ele>
        <time>2016-07-17T08:50:03.980Z</time>
      </trkpt>
      <trkpt lat="47.80957" lon="7.04866">
        <ele>743.40199936</ele>
        <time>2016-07-17T08:50:15.980Z</time>
      </trkpt>
      <trkpt lat="47.80947" lon="7.04852">
        <ele>742.59800064</ele>
        <time>2016-07-17T08:50:35.980Z</time>
      </trkpt>
      <trkpt lat="47.80938" lon="7.04839">
        <ele>742.20199936</ele>
        <time>2016-07-17T08:50:47.980Z</time>
      </trkpt>
      <trkpt lat="47.80928" lon="7.04827">
        <ele>742.59800064</ele>
        <time>2016-07-17T08:50:55.980Z</time>
      </trkpt>
      <trkpt lat="47.80922" lon="7.04815">
        <ele>743.79600128</ele>
        <time>2016-07-17T08:51:03.980Z</time>
      </trkpt>
      <trkpt lat="47.80917" lon="7.04801">
        <ele>745</ele>
        <time>2016-07-17T08:51:15.980Z</time>
      </trkpt>
      <trkpt lat="47.80916" lon="7.0478">
        <ele>745.79600128</ele>
        <time>2016-07-17T08:51:33.980Z</time>
      </trkpt>
      <trkpt lat="47.80916" lon="7.04763">
        <ele>748.19600128</ele>
        <time>2016-07-17T08:51:45.980Z</time>
      </trkpt>
      <trkpt lat="47.80911" lon="7.04745">
        <ele>749</ele>
        <time>2016-07-17T08:51:57.980Z</time>
      </trkpt>
      <trkpt lat="47.80902" lon="7.04733">
        <ele>750.99600128</ele>
        <time>2016-07-17T08:52:09.980Z</time>
      </trkpt>
      <trkpt lat="47.80895" lon="7.04721">
        <ele>752</ele>
        <time>2016-07-17T08:52:26.980Z</time>
      </trkpt>
      <trkpt lat="47.80879" lon="7.04716">
        <ele>747</ele>
        <time>2016-07-17T08:53:49.980Z</time>
      </trkpt>
      <trkpt lat="47.80888" lon="7.04724">
        <ele>748.59659512421</ele>
        <time>2016-07-17T08:54:32.980Z</time>
      </trkpt>
      <trkpt lat="47.80879" lon="7.04716">
        <ele>753.79599872</ele>
        <time>2016-07-17T08:54:58.980Z</time>
      </trkpt>
      <trkpt lat="47.80871" lon="7.04706">
        <ele>754</ele>
        <time>2016-07-17T08:55:08.980Z</time>
      </trkpt>
      <trkpt lat="47.80861" lon="7.04695">
        <ele>754</ele>
        <time>2016-07-17T08:55:18.980Z</time>
      </trkpt>
      <trkpt lat="47.80852" lon="7.04686">
        <ele>754</ele>
        <time>2016-07-17T08:55:27.980Z</time>
      </trkpt>
      <trkpt lat="47.80843" lon="7.04675">
        <ele>753.30200064</ele>
        <time>2016-07-17T08:55:36.980Z</time>
      </trkpt>
      <trkpt lat="47.80834" lon="7.04667">
        <ele>753.59800064</ele>
        <time>2016-07-17T08:55:45.980Z</time>
      </trkpt>
      <trkpt lat="47.80825" lon="7.04659">
        <ele>755.59600128</ele>
        <time>2016-07-17T08:55:57.980Z</time>
      </trkpt>
      <trkpt lat="47.80817" lon="7.04649">
        <ele>756</ele>
        <time>2016-07-17T08:56:08.980Z</time>
      </trkpt>
      <trkpt lat="47.8081" lon="7.04637">
        <ele>758</ele>
        <time>2016-07-17T08:56:23.980Z</time>
      </trkpt>
      <trkpt lat="47.80815" lon="7.04624">
        <ele>758.79800064</ele>
        <time>2016-07-17T08:56:37.980Z</time>
      </trkpt>
      <trkpt lat="47.80807" lon="7.0463">
        <ele>761</ele>
        <time>2016-07-17T08:57:14.980Z</time>
      </trkpt>
      <trkpt lat="47.808" lon="7.0462">
        <ele>758.40200192</ele>
        <time>2016-07-17T08:58:02.980Z</time>
      </trkpt>
      <trkpt lat="47.80791" lon="7.04612">
        <ele>757.00199936</ele>
        <time>2016-07-17T08:58:09.980Z</time>
      </trkpt>
      <trkpt lat="47.80783" lon="7.04601">
        <ele>757</ele>
        <time>2016-07-17T08:58:25.980Z</time>
      </trkpt>
      <trkpt lat="47.80772" lon="7.04591">
        <ele>756.20199936</ele>
        <time>2016-07-17T08:58:37.980Z</time>
      </trkpt>
      <trkpt lat="47.80769" lon="7.04576">
        <ele>755.89799936</ele>
        <time>2016-07-17T08:58:58.980Z</time>
      </trkpt>
      <trkpt lat="47.80762" lon="7.04564">
        <ele>756.69799936</ele>
        <time>2016-07-17T08:59:06.980Z</time>
      </trkpt>
      <trkpt lat="47.80754" lon="7.04554">
        <ele>757</ele>
        <time>2016-07-17T08:59:21.980Z</time>
      </trkpt>
      <trkpt lat="47.80746" lon="7.04545">
        <ele>757</ele>
        <time>2016-07-17T08:59:29.980Z</time>
      </trkpt>
      <trkpt lat="47.80737" lon="7.04536">
        <ele>757.19599872</ele>
        <time>2016-07-17T08:59:40.980Z</time>
      </trkpt>
      <trkpt lat="47.80731" lon="7.04524">
        <ele>758.99600128</ele>
        <time>2016-07-17T08:59:49.980Z</time>
      </trkpt>
      <trkpt lat="47.80727" lon="7.0451">
        <ele>759</ele>
        <time>2016-07-17T08:59:57.980Z</time>
      </trkpt>
      <trkpt lat="47.80723" lon="7.04496">
        <ele>759</ele>
        <time>2016-07-17T09:00:04.980Z</time>
      </trkpt>
      <trkpt lat="47.80724" lon="7.04481">
        <ele>760.50200064</ele>
        <time>2016-07-17T09:00:44.980Z</time>
      </trkpt>
      <trkpt lat="47.80718" lon="7.04468">
        <ele>759.60199936</ele>
        <time>2016-07-17T09:00:53.980Z</time>
      </trkpt>
      <trkpt lat="47.80711" lon="7.04455">
        <ele>758.70200064</ele>
        <time>2016-07-17T09:01:02.980Z</time>
      </trkpt>
      <trkpt lat="47.80705" lon="7.04443">
        <ele>758.00199936</ele>
        <time>2016-07-17T09:01:09.980Z</time>
      </trkpt>
      <trkpt lat="47.80702" lon="7.04428">
        <ele>758.89789952</ele>
        <time>2016-07-17T09:01:18.979Z</time>
      </trkpt>
      <trkpt lat="47.80701" lon="7.04413">
        <ele>759</ele>
        <time>2016-07-17T09:01:28.981Z</time>
      </trkpt>
      <trkpt lat="47.80693" lon="7.04401">
        <ele>759.79800064</ele>
        <time>2016-07-17T09:01:37.980Z</time>
      </trkpt>
      <trkpt lat="47.80689" lon="7.04386">
        <ele>760.59800064</ele>
        <time>2016-07-17T09:01:45.980Z</time>
      </trkpt>
      <trkpt lat="47.80685" lon="7.04372">
        <ele>761.89799936</ele>
        <time>2016-07-17T09:01:58.980Z</time>
      </trkpt>
      <trkpt lat="47.80681" lon="7.04359">
        <ele>761.00379904</ele>
        <time>2016-07-17T09:02:04.981Z</time>
      </trkpt>
      <trkpt lat="47.80677" lon="7.04346">
        <ele>759.60399872</ele>
        <time>2016-07-17T09:02:11.980Z</time>
      </trkpt>
      <trkpt lat="47.80672" lon="7.04324">
        <ele>756.00600920728</ele>
        <time>2016-07-17T09:02:24.980Z</time>
      </trkpt>
      <trkpt lat="47.80664" lon="7.04312">
        <ele>753.60239683593</ele>
        <time>2016-07-17T09:02:31.980Z</time>
      </trkpt>
      <trkpt lat="47.80663" lon="7.04295">
        <ele>752.20379754767</ele>
        <time>2016-07-17T09:02:38.980Z</time>
      </trkpt>
      <trkpt lat="47.80655" lon="7.04285">
        <ele>752</ele>
        <time>2016-07-17T09:02:46.980Z</time>
      </trkpt>
      <trkpt lat="47.80654" lon="7.04271">
        <ele>750.00199936</ele>
        <time>2016-07-17T09:03:09.980Z</time>
      </trkpt>
      <trkpt lat="47.80654" lon="7.04257">
        <ele>750</ele>
        <time>2016-07-17T09:03:18.980Z</time>
      </trkpt>
      <trkpt lat="47.80653" lon="7.04249">
        <ele>750.99599872</ele>
        <time>2016-07-17T09:03:24.980Z</time>
      </trkpt>
      <trkpt lat="47.8065" lon="7.04242">
        <ele>752</ele>
        <time>2016-07-17T09:03:30.980Z</time>
      </trkpt>
      <trkpt lat="47.80646" lon="7.04237">
        <ele>752</ele>
        <time>2016-07-17T09:03:36.980Z</time>
      </trkpt>
      <trkpt lat="47.80642" lon="7.04232">
        <ele>752.29799936</ele>
        <time>2016-07-17T09:03:42.980Z</time>
      </trkpt>
      <trkpt lat="47.8064" lon="7.0423">
        <ele>752.79800064</ele>
        <time>2016-07-17T09:03:47.980Z</time>
      </trkpt>
      <trkpt lat="47.80637" lon="7.04222">
        <ele>754.39599872</ele>
        <time>2016-07-17T09:03:56.980Z</time>
      </trkpt>
      <trkpt lat="47.80634" lon="7.04217">
        <ele>755.89799936</ele>
        <time>2016-07-17T09:04:18.980Z</time>
      </trkpt>
      <trkpt lat="47.80641" lon="7.0422">
        <ele>756.60199936</ele>
        <time>2016-07-17T09:04:33.980Z</time>
      </trkpt>
      <trkpt lat="47.80648" lon="7.0422">
        <ele>756</ele>
        <time>2016-07-17T09:04:41.980Z</time>
      </trkpt>
      <trkpt lat="47.80641" lon="7.04222">
        <ele>756</ele>
        <time>2016-07-17T09:04:49.980Z</time>
      </trkpt>
      <trkpt lat="47.80637" lon="7.04229">
        <ele>757</ele>
        <time>2016-07-17T09:05:28.980Z</time>
      </trkpt>
      <trkpt lat="47.80641" lon="7.04237">
        <ele>757</ele>
        <time>2016-07-17T09:05:45.980Z</time>
      </trkpt>
      <trkpt lat="47.80643" lon="7.04227">
        <ele>757</ele>
        <time>2016-07-17T09:06:10.980Z</time>
      </trkpt>
      <trkpt lat="47.80636" lon="7.0423">
        <ele>758</ele>
        <time>2016-07-17T09:08:54.980Z</time>
      </trkpt>
      <trkpt lat="47.80692" lon="7.04226">
        <ele>758.99970758593</ele>
        <time>2016-07-17T09:28:51.980Z</time>
      </trkpt>
      <trkpt lat="47.80694" lon="7.04224">
        <ele>759</ele>
        <time>2016-07-17T09:28:54.980Z</time>
      </trkpt>
      <trkpt lat="47.80702" lon="7.04215">
        <ele>762.59199744</ele>
        <time>2016-07-17T09:29:10.980Z</time>
      </trkpt>
      <trkpt lat="47.8071" lon="7.04204">
        <ele>764.79599872</ele>
        <time>2016-07-17T09:29:20.980Z</time>
      </trkpt>
      <trkpt lat="47.80713" lon="7.0419">
        <ele>767.29799936</ele>
        <time>2016-07-17T09:29:34.980Z</time>
      </trkpt>
      <trkpt lat="47.80721" lon="7.0418">
        <ele>768.49799936</ele>
        <time>2016-07-17T09:29:46.980Z</time>
      </trkpt>
      <trkpt lat="47.80728" lon="7.04169">
        <ele>772</ele>
        <time>2016-07-17T09:30:02.980Z</time>
      </trkpt>
      <trkpt lat="47.80737" lon="7.04156">
        <ele>772</ele>
        <time>2016-07-17T09:30:16.980Z</time>
      </trkpt>
      <trkpt lat="47.80745" lon="7.04142">
        <ele>772.69799936</ele>
        <time>2016-07-17T09:30:28.980Z</time>
      </trkpt>
      <trkpt lat="47.80751" lon="7.04129">
        <ele>773.89799936</ele>
        <time>2016-07-17T09:30:40.980Z</time>
      </trkpt>
      <trkpt lat="47.80758" lon="7.04115">
        <ele>776.49799936</ele>
        <time>2016-07-17T09:30:56.980Z</time>
      </trkpt>
      <trkpt lat="47.80766" lon="7.04101">
        <ele>777.69799936</ele>
        <time>2016-07-17T09:31:08.980Z</time>
      </trkpt>
      <trkpt lat="47.80773" lon="7.04086">
        <ele>779.79599872</ele>
        <time>2016-07-17T09:31:20.980Z</time>
      </trkpt>
      <trkpt lat="47.8078" lon="7.04072">
        <ele>781</ele>
        <time>2016-07-17T09:31:32.980Z</time>
      </trkpt>
      <trkpt lat="47.80789" lon="7.04063">
        <ele>782.39599872</ele>
        <time>2016-07-17T09:31:48.980Z</time>
      </trkpt>
      <trkpt lat="47.80798" lon="7.04054">
        <ele>783</ele>
        <time>2016-07-17T09:32:00.980Z</time>
      </trkpt>
      <trkpt lat="47.80809" lon="7.04045">
        <ele>785.49799936</ele>
        <time>2016-07-17T09:32:16.980Z</time>
      </trkpt>
      <trkpt lat="47.80819" lon="7.04035">
        <ele>787.39599872</ele>
        <time>2016-07-17T09:32:28.980Z</time>
      </trkpt>
      <trkpt lat="47.80829" lon="7.04027">
        <ele>789.79599872</ele>
        <time>2016-07-17T09:32:40.980Z</time>
      </trkpt>
      <trkpt lat="47.80837" lon="7.04017">
        <ele>790.09799936</ele>
        <time>2016-07-17T09:32:52.980Z</time>
      </trkpt>
      <trkpt lat="47.80845" lon="7.04003">
        <ele>791.69799936</ele>
        <time>2016-07-17T09:33:08.980Z</time>
      </trkpt>
      <trkpt lat="47.80846" lon="7.03983">
        <ele>793.29799936</ele>
        <time>2016-07-17T09:33:24.980Z</time>
      </trkpt>
      <trkpt lat="47.80845" lon="7.03964">
        <ele>795.19600128</ele>
        <time>2016-07-17T09:33:37.980Z</time>
      </trkpt>
      <trkpt lat="47.80844" lon="7.03948">
        <ele>796.79800064</ele>
        <time>2016-07-17T09:33:49.980Z</time>
      </trkpt>
      <trkpt lat="47.80844" lon="7.03933">
        <ele>797.89799936</ele>
        <time>2016-07-17T09:34:00.980Z</time>
      </trkpt>
      <trkpt lat="47.80845" lon="7.03918">
        <ele>799.59800064</ele>
        <time>2016-07-17T09:34:17.980Z</time>
      </trkpt>
      <trkpt lat="47.8085" lon="7.03904">
        <ele>801.79599872</ele>
        <time>2016-07-17T09:34:30.980Z</time>
      </trkpt>
      <trkpt lat="47.80854" lon="7.03891">
        <ele>802.79800064</ele>
        <time>2016-07-17T09:34:39.980Z</time>
      </trkpt>
      <trkpt lat="47.8086" lon="7.03878">
        <ele>804.99600128</ele>
        <time>2016-07-17T09:34:51.980Z</time>
      </trkpt>
      <trkpt lat="47.80865" lon="7.03865">
        <ele>807.29799936</ele>
        <time>2016-07-17T09:35:04.980Z</time>
      </trkpt>
      <trkpt lat="47.80869" lon="7.0385">
        <ele>808</ele>
        <time>2016-07-17T09:35:15.980Z</time>
      </trkpt>
      <trkpt lat="47.80875" lon="7.03838">
        <ele>808</ele>
        <time>2016-07-17T09:35:25.980Z</time>
      </trkpt>
      <trkpt lat="47.80881" lon="7.03825">
        <ele>809.79599872</ele>
        <time>2016-07-17T09:35:40.980Z</time>
      </trkpt>
      <trkpt lat="47.80886" lon="7.03812">
        <ele>812.29799936</ele>
        <time>2016-07-17T09:35:54.980Z</time>
      </trkpt>
      <trkpt lat="47.80895" lon="7.03803">
        <ele>813.29799936</ele>
        <time>2016-07-17T09:36:04.980Z</time>
      </trkpt>
      <trkpt lat="47.80904" lon="7.03798">
        <ele>814.09799936</ele>
        <time>2016-07-17T09:36:12.980Z</time>
      </trkpt>
      <trkpt lat="47.80911" lon="7.03787">
        <ele>814.99800064</ele>
        <time>2016-07-17T09:36:21.980Z</time>
      </trkpt>
      <trkpt lat="47.8092" lon="7.0378">
        <ele>815.89799936</ele>
        <time>2016-07-17T09:36:30.980Z</time>
      </trkpt>
      <trkpt lat="47.8093" lon="7.03775">
        <ele>816.99800064</ele>
        <time>2016-07-17T09:36:41.980Z</time>
      </trkpt>
      <trkpt lat="47.8094" lon="7.03773">
        <ele>818.09799936</ele>
        <time>2016-07-17T09:36:52.980Z</time>
      </trkpt>
      <trkpt lat="47.8095" lon="7.0377">
        <ele>819.89799936</ele>
        <time>2016-07-17T09:37:10.980Z</time>
      </trkpt>
      <trkpt lat="47.8096" lon="7.0377">
        <ele>820.69799936</ele>
        <time>2016-07-17T09:37:28.980Z</time>
      </trkpt>
      <trkpt lat="47.80972" lon="7.03768">
        <ele>822.19599872</ele>
        <time>2016-07-17T09:37:42.980Z</time>
      </trkpt>
      <trkpt lat="47.80984" lon="7.03768">
        <ele>826</ele>
        <time>2016-07-17T09:38:02.980Z</time>
      </trkpt>
      <trkpt lat="47.80992" lon="7.03776">
        <ele>826.39800064</ele>
        <time>2016-07-17T09:38:15.980Z</time>
      </trkpt>
      <trkpt lat="47.81005" lon="7.03773">
        <ele>827</ele>
        <time>2016-07-17T09:38:23.980Z</time>
      </trkpt>
      <trkpt lat="47.81014" lon="7.03768">
        <ele>827</ele>
        <time>2016-07-17T09:38:31.980Z</time>
      </trkpt>
      <trkpt lat="47.81024" lon="7.03761">
        <ele>829.29399808</ele>
        <time>2016-07-17T09:38:42.980Z</time>
      </trkpt>
      <trkpt lat="47.81032" lon="7.03755">
        <ele>832.29799936</ele>
        <time>2016-07-17T09:38:54.980Z</time>
      </trkpt>
      <trkpt lat="47.81039" lon="7.03742">
        <ele>833.89799936</ele>
        <time>2016-07-17T09:39:10.980Z</time>
      </trkpt>
      <trkpt lat="47.81045" lon="7.03729">
        <ele>834.89799936</ele>
        <time>2016-07-17T09:39:20.980Z</time>
      </trkpt>
      <trkpt lat="47.8105" lon="7.03716">
        <ele>835</ele>
        <time>2016-07-17T09:39:30.980Z</time>
      </trkpt>
      <trkpt lat="47.81054" lon="7.03702">
        <ele>836.79599872</ele>
        <time>2016-07-17T09:39:40.980Z</time>
      </trkpt>
      <trkpt lat="47.81058" lon="7.03688">
        <ele>837.69799936</ele>
        <time>2016-07-17T09:39:48.980Z</time>
      </trkpt>
      <trkpt lat="47.8106" lon="7.03673">
        <ele>839.79599872</ele>
        <time>2016-07-17T09:40:00.980Z</time>
      </trkpt>
      <trkpt lat="47.81066" lon="7.0366">
        <ele>840.99800064</ele>
        <time>2016-07-17T09:40:11.980Z</time>
      </trkpt>
      <trkpt lat="47.81072" lon="7.03648">
        <ele>841.89799936</ele>
        <time>2016-07-17T09:40:20.980Z</time>
      </trkpt>
      <trkpt lat="47.8108" lon="7.03636">
        <ele>843.99600128</ele>
        <time>2016-07-17T09:40:31.980Z</time>
      </trkpt>
      <trkpt lat="47.81087" lon="7.03624">
        <ele>844.19599872</ele>
        <time>2016-07-17T09:40:42.980Z</time>
      </trkpt>
      <trkpt lat="47.81094" lon="7.03612">
        <ele>845.99600128</ele>
        <time>2016-07-17T09:40:51.980Z</time>
      </trkpt>
      <trkpt lat="47.81102" lon="7.03604">
        <ele>848.19800064</ele>
        <time>2016-07-17T09:41:03.980Z</time>
      </trkpt>
      <trkpt lat="47.81111" lon="7.03596">
        <ele>849.19800064</ele>
        <time>2016-07-17T09:41:13.980Z</time>
      </trkpt>
      <trkpt lat="47.8112" lon="7.03589">
        <ele>850.09799936</ele>
        <time>2016-07-17T09:41:22.980Z</time>
      </trkpt>
      <trkpt lat="47.81129" lon="7.03584">
        <ele>850.20090099671</ele>
        <time>2016-07-17T09:41:39.983Z</time>
      </trkpt>
      <trkpt lat="47.81134" lon="7.03572">
        <ele>850.99800064</ele>
        <time>2016-07-17T09:42:11.980Z</time>
      </trkpt>
      <trkpt lat="47.81135" lon="7.03555">
        <ele>853</ele>
        <time>2016-07-17T09:42:25.980Z</time>
      </trkpt>
      <trkpt lat="47.81137" lon="7.03539">
        <ele>853.79600128</ele>
        <time>2016-07-17T09:42:35.980Z</time>
      </trkpt>
      <trkpt lat="47.81141" lon="7.03525">
        <ele>855.49799936</ele>
        <time>2016-07-17T09:42:46.980Z</time>
      </trkpt>
      <trkpt lat="47.81147" lon="7.03514">
        <ele>856.39800064</ele>
        <time>2016-07-17T09:42:55.980Z</time>
      </trkpt>
      <trkpt lat="47.81149" lon="7.03498">
        <ele>858.59600128</ele>
        <time>2016-07-17T09:43:09.980Z</time>
      </trkpt>
      <trkpt lat="47.81153" lon="7.03484">
        <ele>859.99800064</ele>
        <time>2016-07-17T09:43:21.980Z</time>
      </trkpt>
      <trkpt lat="47.81155" lon="7.03469">
        <ele>860</ele>
        <time>2016-07-17T09:43:31.980Z</time>
      </trkpt>
      <trkpt lat="47.81158" lon="7.03452">
        <ele>860.99800064</ele>
        <time>2016-07-17T09:43:41.980Z</time>
      </trkpt>
      <trkpt lat="47.8116" lon="7.03436">
        <ele>861</ele>
        <time>2016-07-17T09:43:51.980Z</time>
      </trkpt>
      <trkpt lat="47.8116" lon="7.03421">
        <ele>861.09799936</ele>
        <time>2016-07-17T09:44:02.980Z</time>
      </trkpt>
      <trkpt lat="47.81165" lon="7.03407">
        <ele>861.89799936</ele>
        <time>2016-07-17T09:44:10.980Z</time>
      </trkpt>
      <trkpt lat="47.81168" lon="7.03393">
        <ele>863.59600128</ele>
        <time>2016-07-17T09:44:19.980Z</time>
      </trkpt>
      <trkpt lat="47.81166" lon="7.03378">
        <ele>864.99599872</ele>
        <time>2016-07-17T09:44:26.980Z</time>
      </trkpt>
      <trkpt lat="47.81163" lon="7.03357">
        <ele>866</ele>
        <time>2016-07-17T09:44:41.980Z</time>
      </trkpt>
      <trkpt lat="47.81159" lon="7.03348">
        <ele>866</ele>
        <time>2016-07-17T09:44:51.980Z</time>
      </trkpt>
      <trkpt lat="47.81158" lon="7.03339">
        <ele>867</ele>
        <time>2016-07-17T09:45:13.980Z</time>
      </trkpt>
      <trkpt lat="47.81158" lon="7.03328">
        <ele>867.69799936</ele>
        <time>2016-07-17T09:45:28.980Z</time>
      </trkpt>
      <trkpt lat="47.81164" lon="7.03323">
        <ele>868.89820224518</ele>
        <time>2016-07-17T09:46:20.981Z</time>
      </trkpt>
      <trkpt lat="47.81163" lon="7.03322">
        <ele>869.00000298061</ele>
        <time>2016-07-17T09:46:24.981Z</time>
      </trkpt>
      <trkpt lat="47.81165" lon="7.03311">
        <ele>869.99923364501</ele>
        <time>2016-07-17T09:52:03.980Z</time>
      </trkpt>
      <trkpt lat="47.81166" lon="7.03304">
        <ele>870.70071771874</ele>
        <time>2016-07-17T09:52:11.082Z</time>
      </trkpt>
      <trkpt lat="47.81173" lon="7.03294">
        <ele>871</ele>
        <time>2016-07-17T09:52:22.980Z</time>
      </trkpt>
      <trkpt lat="47.8118" lon="7.03277">
        <ele>873</ele>
        <time>2016-07-17T09:52:38.980Z</time>
      </trkpt>
      <trkpt lat="47.81183" lon="7.03261">
        <ele>874.79599872</ele>
        <time>2016-07-17T09:52:52.980Z</time>
      </trkpt>
      <trkpt lat="47.81189" lon="7.03253">
        <ele>875</ele>
        <time>2016-07-17T09:53:01.980Z</time>
      </trkpt>
      <trkpt lat="47.81196" lon="7.03246">
        <ele>875</ele>
        <time>2016-07-17T09:53:10.980Z</time>
      </trkpt>
      <trkpt lat="47.81203" lon="7.03243">
        <ele>875.39800064</ele>
        <time>2016-07-17T09:53:17.980Z</time>
      </trkpt>
      <trkpt lat="47.81213" lon="7.03241">
        <ele>877.59600128</ele>
        <time>2016-07-17T09:53:31.980Z</time>
      </trkpt>
      <trkpt lat="47.81223" lon="7.03238">
        <ele>878</ele>
        <time>2016-07-17T09:53:43.980Z</time>
      </trkpt>
      <trkpt lat="47.81232" lon="7.03233">
        <ele>879.19600128</ele>
        <time>2016-07-17T09:53:59.980Z</time>
      </trkpt>
      <trkpt lat="47.81242" lon="7.03229">
        <ele>880.89799936</ele>
        <time>2016-07-17T09:54:12.980Z</time>
      </trkpt>
      <trkpt lat="47.81252" lon="7.0323">
        <ele>881.99800064</ele>
        <time>2016-07-17T09:54:23.980Z</time>
      </trkpt>
      <trkpt lat="47.81263" lon="7.0323">
        <ele>883.09799936</ele>
        <time>2016-07-17T09:54:34.980Z</time>
      </trkpt>
      <trkpt lat="47.81273" lon="7.03228">
        <ele>884.19800064</ele>
        <time>2016-07-17T09:54:45.980Z</time>
      </trkpt>
      <trkpt lat="47.81284" lon="7.03231">
        <ele>885</ele>
        <time>2016-07-17T09:54:57.980Z</time>
      </trkpt>
      <trkpt lat="47.81295" lon="7.03231">
        <ele>885.59800064</ele>
        <time>2016-07-17T09:55:09.980Z</time>
      </trkpt>
      <trkpt lat="47.81305" lon="7.03236">
        <ele>886.79800064</ele>
        <time>2016-07-17T09:55:21.980Z</time>
      </trkpt>
      <trkpt lat="47.81316" lon="7.03235">
        <ele>887.89799936</ele>
        <time>2016-07-17T09:55:32.980Z</time>
      </trkpt>
      <trkpt lat="47.81326" lon="7.03235">
        <ele>889.39600128</ele>
        <time>2016-07-17T09:55:45.980Z</time>
      </trkpt>
      <trkpt lat="47.81336" lon="7.03236">
        <ele>891.29799936</ele>
        <time>2016-07-17T09:55:56.980Z</time>
      </trkpt>
      <trkpt lat="47.81347" lon="7.03236">
        <ele>892.79800064</ele>
        <time>2016-07-17T09:56:11.980Z</time>
      </trkpt>
      <trkpt lat="47.81358" lon="7.03235">
        <ele>893</ele>
        <time>2016-07-17T09:56:20.980Z</time>
      </trkpt>
      <trkpt lat="47.81369" lon="7.03233">
        <ele>894.09799936</ele>
        <time>2016-07-17T09:56:34.980Z</time>
      </trkpt>
      <trkpt lat="47.81379" lon="7.0323">
        <ele>894.99800064</ele>
        <time>2016-07-17T09:56:43.980Z</time>
      </trkpt>
      <trkpt lat="47.81391" lon="7.0323">
        <ele>897.59800064</ele>
        <time>2016-07-17T09:56:59.980Z</time>
      </trkpt>
      <trkpt lat="47.81402" lon="7.03226">
        <ele>898.79800064</ele>
        <time>2016-07-17T09:57:11.980Z</time>
      </trkpt>
      <trkpt lat="47.81413" lon="7.03227">
        <ele>899.99800064</ele>
        <time>2016-07-17T09:57:23.980Z</time>
      </trkpt>
      <trkpt lat="47.81425" lon="7.03226">
        <ele>901.19800064</ele>
        <time>2016-07-17T09:57:35.980Z</time>
      </trkpt>
      <trkpt lat="47.81436" lon="7.03224">
        <ele>902</ele>
        <time>2016-07-17T09:57:47.980Z</time>
      </trkpt>
      <trkpt lat="47.81448" lon="7.0322">
        <ele>903.19600128</ele>
        <time>2016-07-17T09:57:59.980Z</time>
      </trkpt>
      <trkpt lat="47.81459" lon="7.03221">
        <ele>906.19800064</ele>
        <time>2016-07-17T09:58:15.980Z</time>
      </trkpt>
      <trkpt lat="47.81472" lon="7.03216">
        <ele>907.79800064</ele>
        <time>2016-07-17T09:58:31.980Z</time>
      </trkpt>
      <trkpt lat="47.81483" lon="7.03215">
        <ele>909.99600128</ele>
        <time>2016-07-17T09:58:43.980Z</time>
      </trkpt>
      <trkpt lat="47.81492" lon="7.03207">
        <ele>911</ele>
        <time>2016-07-17T09:58:59.980Z</time>
      </trkpt>
      <trkpt lat="47.81501" lon="7.032">
        <ele>912.59600128</ele>
        <time>2016-07-17T09:59:11.980Z</time>
      </trkpt>
      <trkpt lat="47.81511" lon="7.0319">
        <ele>913</ele>
        <time>2016-07-17T09:59:27.980Z</time>
      </trkpt>
      <trkpt lat="47.81522" lon="7.03178">
        <ele>914.19600128</ele>
        <time>2016-07-17T09:59:39.980Z</time>
      </trkpt>
      <trkpt lat="47.81531" lon="7.03171">
        <ele>915</ele>
        <time>2016-07-17T09:59:47.980Z</time>
      </trkpt>
      <trkpt lat="47.81538" lon="7.03159">
        <ele>916.19600128</ele>
        <time>2016-07-17T09:59:59.980Z</time>
      </trkpt>
      <trkpt lat="47.81545" lon="7.03147">
        <ele>918.19800064</ele>
        <time>2016-07-17T10:00:15.980Z</time>
      </trkpt>
      <trkpt lat="47.81553" lon="7.03131">
        <ele>920.19800064</ele>
        <time>2016-07-17T10:00:35.980Z</time>
      </trkpt>
      <trkpt lat="47.81558" lon="7.03116">
        <ele>921.79800064</ele>
        <time>2016-07-17T10:00:51.980Z</time>
      </trkpt>
      <trkpt lat="47.81566" lon="7.03103">
        <ele>924.79600128</ele>
        <time>2016-07-17T10:01:07.980Z</time>
      </trkpt>
      <trkpt lat="47.8157" lon="7.03087">
        <ele>926.99800064</ele>
        <time>2016-07-17T10:01:23.980Z</time>
      </trkpt>
      <trkpt lat="47.81575" lon="7.03071">
        <ele>929</ele>
        <time>2016-07-17T10:01:43.980Z</time>
      </trkpt>
      <trkpt lat="47.81582" lon="7.03055">
        <ele>930.79400192</ele>
        <time>2016-07-17T10:01:59.980Z</time>
      </trkpt>
      <trkpt lat="47.8159" lon="7.0304">
        <ele>933.59600128</ele>
        <time>2016-07-17T10:02:11.980Z</time>
      </trkpt>
      <trkpt lat="47.81594" lon="7.03024">
        <ele>935.79600128</ele>
        <time>2016-07-17T10:02:27.980Z</time>
      </trkpt>
      <trkpt lat="47.81598" lon="7.03011">
        <ele>937.99800064</ele>
        <time>2016-07-17T10:02:43.980Z</time>
      </trkpt>
      <trkpt lat="47.816" lon="7.02993">
        <ele>938.59800064</ele>
        <time>2016-07-17T10:02:59.980Z</time>
      </trkpt>
      <trkpt lat="47.81604" lon="7.02978">
        <ele>940.19800064</ele>
        <time>2016-07-17T10:03:15.980Z</time>
      </trkpt>
      <trkpt lat="47.81608" lon="7.02961">
        <ele>945.59600128</ele>
        <time>2016-07-17T10:03:51.980Z</time>
      </trkpt>
      <trkpt lat="47.81616" lon="7.02944">
        <ele>945.40199936</ele>
        <time>2016-07-17T10:03:59.980Z</time>
      </trkpt>
      <trkpt lat="47.81614" lon="7.02959">
        <ele>946</ele>
        <time>2016-07-17T10:05:31.980Z</time>
      </trkpt>
      <trkpt lat="47.81603" lon="7.0296">
        <ele>948.00199936</ele>
        <time>2016-07-17T10:08:03.980Z</time>
      </trkpt>
      <trkpt lat="47.81594" lon="7.02953">
        <ele>948</ele>
        <time>2016-07-17T10:08:47.980Z</time>
      </trkpt>
      <trkpt lat="47.81584" lon="7.0295">
        <ele>948</ele>
        <time>2016-07-17T10:09:03.980Z</time>
      </trkpt>
      <trkpt lat="47.81593" lon="7.02942">
        <ele>948</ele>
        <time>2016-07-17T10:09:47.980Z</time>
      </trkpt>
      <trkpt lat="47.81596" lon="7.02944">
        <ele>948.9477449484</ele>
        <time>2016-07-17T10:10:21.980Z</time>
      </trkpt>
      <trkpt lat="47.81779" lon="7.02432">
        <ele>1046.9611798535</ele>
        <time>2016-07-17T10:29:17.980Z</time>
      </trkpt>
      <trkpt lat="47.81783" lon="7.02434">
        <ele>1047.7366221151</ele>
        <time>2016-07-17T10:29:21.980Z</time>
      </trkpt>
      <trkpt lat="47.81793" lon="7.02434">
        <ele>1050.19800064</ele>
        <time>2016-07-17T10:29:39.980Z</time>
      </trkpt>
      <trkpt lat="47.81803" lon="7.02433">
        <ele>1052.39599872</ele>
        <time>2016-07-17T10:29:54.980Z</time>
      </trkpt>
      <trkpt lat="47.81815" lon="7.02434">
        <ele>1054.09799936</ele>
        <time>2016-07-17T10:30:08.980Z</time>
      </trkpt>
      <trkpt lat="47.81826" lon="7.02439">
        <ele>1056.09799936</ele>
        <time>2016-07-17T10:30:28.980Z</time>
      </trkpt>
      <trkpt lat="47.81838" lon="7.02444">
        <ele>1057.69799936</ele>
        <time>2016-07-17T10:30:44.980Z</time>
      </trkpt>
      <trkpt lat="47.81848" lon="7.02448">
        <ele>1059.89399808</ele>
        <time>2016-07-17T10:31:00.980Z</time>
      </trkpt>
      <trkpt lat="47.81861" lon="7.02451">
        <ele>1062</ele>
        <time>2016-07-17T10:31:16.980Z</time>
      </trkpt>
      <trkpt lat="47.81872" lon="7.02452">
        <ele>1063.19599872</ele>
        <time>2016-07-17T10:31:28.980Z</time>
      </trkpt>
      <trkpt lat="47.81883" lon="7.02453">
        <ele>1064.99600128</ele>
        <time>2016-07-17T10:31:37.980Z</time>
      </trkpt>
      <trkpt lat="47.81893" lon="7.02453">
        <ele>1066.19800064</ele>
        <time>2016-07-17T10:31:49.980Z</time>
      </trkpt>
      <trkpt lat="47.81903" lon="7.02456">
        <ele>1067.39800064</ele>
        <time>2016-07-17T10:32:01.980Z</time>
      </trkpt>
      <trkpt lat="47.81911" lon="7.02463">
        <ele>1068</ele>
        <time>2016-07-17T10:32:29.980Z</time>
      </trkpt>
      <trkpt lat="47.81916" lon="7.02468">
        <ele>1068.19599872</ele>
        <time>2016-07-17T10:34:08.980Z</time>
      </trkpt>
      <trkpt lat="47.81926" lon="7.02461">
        <ele>1069.99600128</ele>
        <time>2016-07-17T10:34:17.980Z</time>
      </trkpt>
      <trkpt lat="47.81933" lon="7.02453">
        <ele>1070</ele>
        <time>2016-07-17T10:34:26.980Z</time>
      </trkpt>
      <trkpt lat="47.81941" lon="7.02447">
        <ele>1069.40199936</ele>
        <time>2016-07-17T10:34:33.980Z</time>
      </trkpt>
      <trkpt lat="47.81951" lon="7.02446">
        <ele>1069.39800064</ele>
        <time>2016-07-17T10:34:41.980Z</time>
      </trkpt>
      <trkpt lat="47.8196" lon="7.0244">
        <ele>1070.19599872</ele>
        <time>2016-07-17T10:34:48.980Z</time>
      </trkpt>
      <trkpt lat="47.81967" lon="7.02434">
        <ele>1071.59600128</ele>
        <time>2016-07-17T10:34:55.980Z</time>
      </trkpt>
      <trkpt lat="47.81976" lon="7.02431">
        <ele>1073</ele>
        <time>2016-07-17T10:35:28.980Z</time>
      </trkpt>
      <trkpt lat="47.81982" lon="7.02427">
        <ele>1073.69799936</ele>
        <time>2016-07-17T10:35:44.980Z</time>
      </trkpt>
      <trkpt lat="47.81991" lon="7.02427">
        <ele>1074.39800064</ele>
        <time>2016-07-17T10:35:51.980Z</time>
      </trkpt>
      <trkpt lat="47.81999" lon="7.02417">
        <ele>1075</ele>
        <time>2016-07-17T10:36:02.980Z</time>
      </trkpt>
      <trkpt lat="47.82006" lon="7.0242">
        <ele>1075</ele>
        <time>2016-07-17T10:36:07.980Z</time>
      </trkpt>
      <trkpt lat="47.82014" lon="7.02415">
        <ele>1075</ele>
        <time>2016-07-17T10:36:16.980Z</time>
      </trkpt>
      <trkpt lat="47.82024" lon="7.0241">
        <ele>1075</ele>
        <time>2016-07-17T10:36:27.980Z</time>
      </trkpt>
      <trkpt lat="47.82028" lon="7.02403">
        <ele>1076.39599872</ele>
        <time>2016-07-17T10:36:34.980Z</time>
      </trkpt>
      <trkpt lat="47.82039" lon="7.02388">
        <ele>1077</ele>
        <time>2016-07-17T10:36:45.980Z</time>
      </trkpt>
      <trkpt lat="47.82046" lon="7.02384">
        <ele>1077.39800064</ele>
        <time>2016-07-17T10:36:51.980Z</time>
      </trkpt>
      <trkpt lat="47.8205" lon="7.02374">
        <ele>1079</ele>
        <time>2016-07-17T10:37:12.980Z</time>
      </trkpt>
      <trkpt lat="47.82056" lon="7.02366">
        <ele>1079.59599872</ele>
        <time>2016-07-17T10:37:20.980Z</time>
      </trkpt>
      <trkpt lat="47.82062" lon="7.02359">
        <ele>1081</ele>
        <time>2016-07-17T10:37:28.980Z</time>
      </trkpt>
      <trkpt lat="47.82069" lon="7.02346">
        <ele>1081</ele>
        <time>2016-07-17T10:37:40.980Z</time>
      </trkpt>
      <trkpt lat="47.82082" lon="7.0233">
        <ele>1081.99599872</ele>
        <time>2016-07-17T10:37:52.980Z</time>
      </trkpt>
      <trkpt lat="47.82092" lon="7.02318">
        <ele>1082.00199936</ele>
        <time>2016-07-17T10:38:07.980Z</time>
      </trkpt>
      <trkpt lat="47.82099" lon="7.02302">
        <ele>1082.9989993196</ele>
        <time>2016-07-17T10:38:17.980Z</time>
      </trkpt>
      <trkpt lat="47.82109" lon="7.0229">
        <ele>1083.09799936</ele>
        <time>2016-07-17T10:38:28.980Z</time>
      </trkpt>
      <trkpt lat="47.82116" lon="7.02283">
        <ele>1083.99800064</ele>
        <time>2016-07-17T10:38:37.980Z</time>
      </trkpt>
      <trkpt lat="47.82119" lon="7.02268">
        <ele>1084</ele>
        <time>2016-07-17T10:38:53.980Z</time>
      </trkpt>
      <trkpt lat="47.82127" lon="7.02262">
        <ele>1084.29789952</ele>
        <time>2016-07-17T10:39:00.979Z</time>
      </trkpt>
      <trkpt lat="47.82135" lon="7.02254">
        <ele>1085</ele>
        <time>2016-07-17T10:39:08.980Z</time>
      </trkpt>
      <trkpt lat="47.82139" lon="7.02244">
        <ele>1085.0970967457</ele>
        <time>2016-07-17T10:39:18.980Z</time>
      </trkpt>
      <trkpt lat="47.82145" lon="7.02237">
        <ele>1085.6976971539</ele>
        <time>2016-07-17T10:39:24.980Z</time>
      </trkpt>
      <trkpt lat="47.8215" lon="7.02244">
        <ele>1087</ele>
        <time>2016-07-17T10:39:43.084Z</time>
      </trkpt>
      <trkpt lat="47.8215" lon="7.02233">
        <ele>1086.09799936</ele>
        <time>2016-07-17T10:40:48.980Z</time>
      </trkpt>
      <trkpt lat="47.82152" lon="7.02223">
        <ele>1086.89799936</ele>
        <time>2016-07-17T10:40:56.980Z</time>
      </trkpt>
      <trkpt lat="47.82155" lon="7.02216">
        <ele>1088.59800064</ele>
        <time>2016-07-17T10:41:13.980Z</time>
      </trkpt>
      <trkpt lat="47.82161" lon="7.02208">
        <ele>1089</ele>
        <time>2016-07-17T10:41:40.980Z</time>
      </trkpt>
      <trkpt lat="47.82168" lon="7.02193">
        <ele>1089.39600128</ele>
        <time>2016-07-17T10:41:49.980Z</time>
      </trkpt>
      <trkpt lat="47.82171" lon="7.02173">
        <ele>1091</ele>
        <time>2016-07-17T10:41:59.980Z</time>
      </trkpt>
      <trkpt lat="47.82177" lon="7.02165">
        <ele>1091</ele>
        <time>2016-07-17T10:42:09.980Z</time>
      </trkpt>
      <trkpt lat="47.82184" lon="7.02153">
        <ele>1091</ele>
        <time>2016-07-17T10:42:17.980Z</time>
      </trkpt>
      <trkpt lat="47.82187" lon="7.02143">
        <ele>1092.19800064</ele>
        <time>2016-07-17T10:42:29.980Z</time>
      </trkpt>
      <trkpt lat="47.8219" lon="7.02132">
        <ele>1092.99800064</ele>
        <time>2016-07-17T10:42:37.980Z</time>
      </trkpt>
      <trkpt lat="47.82195" lon="7.02112">
        <ele>1095</ele>
        <time>2016-07-17T10:42:51.980Z</time>
      </trkpt>
      <trkpt lat="47.822" lon="7.02107">
        <ele>1095.20199936</ele>
        <time>2016-07-17T10:43:25.980Z</time>
      </trkpt>
      <trkpt lat="47.82204" lon="7.02096">
        <ele>1095.59800064</ele>
        <time>2016-07-17T10:43:33.980Z</time>
      </trkpt>
      <trkpt lat="47.82208" lon="7.02085">
        <ele>1097.19600128</ele>
        <time>2016-07-17T10:43:43.980Z</time>
      </trkpt>
      <trkpt lat="47.82212" lon="7.02076">
        <ele>1098</ele>
        <time>2016-07-17T10:43:49.980Z</time>
      </trkpt>
      <trkpt lat="47.82217" lon="7.02066">
        <ele>1098</ele>
        <time>2016-07-17T10:43:56.980Z</time>
      </trkpt>
      <trkpt lat="47.8222" lon="7.02051">
        <ele>1100.29799936</ele>
        <time>2016-07-17T10:44:10.980Z</time>
      </trkpt>
      <trkpt lat="47.82225" lon="7.02044">
        <ele>1101.00399872</ele>
        <time>2016-07-17T10:44:47.980Z</time>
      </trkpt>
      <trkpt lat="47.82229" lon="7.02036">
        <ele>1101</ele>
        <time>2016-07-17T10:44:56.980Z</time>
      </trkpt>
      <trkpt lat="47.82236" lon="7.02029">
        <ele>1101.99599872</ele>
        <time>2016-07-17T10:45:02.980Z</time>
      </trkpt>
      <trkpt lat="47.82243" lon="7.02023">
        <ele>1103.19800064</ele>
        <time>2016-07-17T10:45:09.980Z</time>
      </trkpt>
      <trkpt lat="47.82249" lon="7.02016">
        <ele>1104</ele>
        <time>2016-07-17T10:45:22.980Z</time>
      </trkpt>
      <trkpt lat="47.82259" lon="7.02014">
        <ele>1104.49799936</ele>
        <time>2016-07-17T10:45:32.980Z</time>
      </trkpt>
      <trkpt lat="47.8227" lon="7.02006">
        <ele>1105.59800064</ele>
        <time>2016-07-17T10:45:43.980Z</time>
      </trkpt>
      <trkpt lat="47.82275" lon="7.02">
        <ele>1107</ele>
        <time>2016-07-17T10:46:27.980Z</time>
      </trkpt>
      <trkpt lat="47.82273" lon="7.01989">
        <ele>1107</ele>
        <time>2016-07-17T10:46:56.980Z</time>
      </trkpt>
      <trkpt lat="47.82283" lon="7.01988">
        <ele>1107</ele>
        <time>2016-07-17T10:47:07.980Z</time>
      </trkpt>
      <trkpt lat="47.8228" lon="7.01977">
        <ele>1107</ele>
        <time>2016-07-17T10:47:15.980Z</time>
      </trkpt>
      <trkpt lat="47.8228" lon="7.01963">
        <ele>1107</ele>
        <time>2016-07-17T10:47:24.980Z</time>
      </trkpt>
      <trkpt lat="47.82276" lon="7.0195">
        <ele>1107</ele>
        <time>2016-07-17T10:47:37.980Z</time>
      </trkpt>
      <trkpt lat="47.82272" lon="7.0194">
        <ele>1107.40199936</ele>
        <time>2016-07-17T10:48:03.980Z</time>
      </trkpt>
      <trkpt lat="47.82266" lon="7.01934">
        <ele>1108.9999179371</ele>
        <time>2016-07-17T10:49:20.980Z</time>
      </trkpt>
      <trkpt lat="47.82235" lon="7.01677">
        <ele>1107</ele>
        <time>2016-07-17T11:09:44.980Z</time>
      </trkpt>
      <trkpt lat="47.82243" lon="7.01671">
        <ele>1107</ele>
        <time>2016-07-17T11:09:58.980Z</time>
      </trkpt>
      <trkpt lat="47.82241" lon="7.01661">
        <ele>1107</ele>
        <time>2016-07-17T11:10:07.980Z</time>
      </trkpt>
      <trkpt lat="47.8224" lon="7.01646">
        <ele>1107</ele>
        <time>2016-07-17T11:10:13.980Z</time>
      </trkpt>
      <trkpt lat="47.82242" lon="7.01634">
        <ele>1107</ele>
        <time>2016-07-17T11:10:18.980Z</time>
      </trkpt>
      <trkpt lat="47.82241" lon="7.01618">
        <ele>1107</ele>
        <time>2016-07-17T11:10:31.980Z</time>
      </trkpt>
      <trkpt lat="47.8224" lon="7.01596">
        <ele>1107</ele>
        <time>2016-07-17T11:10:39.980Z</time>
      </trkpt>
      <trkpt lat="47.82241" lon="7.01575">
        <ele>1107</ele>
        <time>2016-07-17T11:10:52.980Z</time>
      </trkpt>
      <trkpt lat="47.82246" lon="7.01566">
        <ele>1107</ele>
        <time>2016-07-17T11:11:01.980Z</time>
      </trkpt>
      <trkpt lat="47.82246" lon="7.01539">
        <ele>1107</ele>
        <time>2016-07-17T11:11:16.979Z</time>
      </trkpt>
      <trkpt lat="47.82243" lon="7.01509">
        <ele>1107</ele>
        <time>2016-07-17T11:11:27.980Z</time>
      </trkpt>
      <trkpt lat="47.82239" lon="7.01498">
        <ele>1107</ele>
        <time>2016-07-17T11:11:38.981Z</time>
      </trkpt>
      <trkpt lat="47.82244" lon="7.01489">
        <ele>1107</ele>
        <time>2016-07-17T11:12:03.980Z</time>
      </trkpt>
      <trkpt lat="47.82246" lon="7.01474">
        <ele>1107.49800064</ele>
        <time>2016-07-17T11:12:13.980Z</time>
      </trkpt>
      <trkpt lat="47.82243" lon="7.01463">
        <ele>1107</ele>
        <time>2016-07-17T11:12:31.980Z</time>
      </trkpt>
      <trkpt lat="47.82246" lon="7.01454">
        <ele>1107.39599872</ele>
        <time>2016-07-17T11:12:40.980Z</time>
      </trkpt>
      <trkpt lat="47.82254" lon="7.01435">
        <ele>1110.59599872</ele>
        <time>2016-07-17T11:12:56.980Z</time>
      </trkpt>
      <trkpt lat="47.82259" lon="7.01426">
        <ele>1111</ele>
        <time>2016-07-17T11:13:36.980Z</time>
      </trkpt>
      <trkpt lat="47.82265" lon="7.01407">
        <ele>1112</ele>
        <time>2016-07-17T11:13:49.980Z</time>
      </trkpt>
      <trkpt lat="47.82272" lon="7.014">
        <ele>1112.10819968</ele>
        <time>2016-07-17T11:14:00.082Z</time>
      </trkpt>
      <trkpt lat="47.82278" lon="7.01386">
        <ele>1114</ele>
        <time>2016-07-17T11:14:31.080Z</time>
      </trkpt>
      <trkpt lat="47.82283" lon="7.01376">
        <ele>1114</ele>
        <time>2016-07-17T11:14:42.980Z</time>
      </trkpt>
      <trkpt lat="47.82283" lon="7.01357">
        <ele>1114.69800064</ele>
        <time>2016-07-17T11:14:55.980Z</time>
      </trkpt>
      <trkpt lat="47.82286" lon="7.01342">
        <ele>1117</ele>
        <time>2016-07-17T11:15:14.980Z</time>
      </trkpt>
      <trkpt lat="47.82291" lon="7.01331">
        <ele>1117.4985019775</ele>
        <time>2016-07-17T11:15:23.980Z</time>
      </trkpt>
      <trkpt lat="47.82288" lon="7.01314">
        <ele>1118.29800064</ele>
        <time>2016-07-17T11:15:31.980Z</time>
      </trkpt>
      <trkpt lat="47.82291" lon="7.01298">
        <ele>1119.7967952603</ele>
        <time>2016-07-17T11:15:42.980Z</time>
      </trkpt>
      <trkpt lat="47.82296" lon="7.01284">
        <ele>1121.5984008307</ele>
        <time>2016-07-17T11:15:54.980Z</time>
      </trkpt>
      <trkpt lat="47.823" lon="7.0127">
        <ele>1122.59799936</ele>
        <time>2016-07-17T11:16:04.980Z</time>
      </trkpt>
      <trkpt lat="47.82301" lon="7.01255">
        <ele>1123</ele>
        <time>2016-07-17T11:16:13.980Z</time>
      </trkpt>
      <trkpt lat="47.82305" lon="7.0124">
        <ele>1123.398600567</ele>
        <time>2016-07-17T11:16:22.980Z</time>
      </trkpt>
      <trkpt lat="47.82312" lon="7.01229">
        <ele>1124.39799936</ele>
        <time>2016-07-17T11:16:32.980Z</time>
      </trkpt>
      <trkpt lat="47.82316" lon="7.01215">
        <ele>1125</ele>
        <time>2016-07-17T11:16:43.980Z</time>
      </trkpt>
      <trkpt lat="47.82322" lon="7.01202">
        <ele>1125.39799936</ele>
        <time>2016-07-17T11:16:52.980Z</time>
      </trkpt>
      <trkpt lat="47.82327" lon="7.01194">
        <ele>1125.99799936</ele>
        <time>2016-07-17T11:16:58.980Z</time>
      </trkpt>
      <trkpt lat="47.82331" lon="7.01183">
        <ele>1126</ele>
        <time>2016-07-17T11:17:04.980Z</time>
      </trkpt>
      <trkpt lat="47.82333" lon="7.01173">
        <ele>1126</ele>
        <time>2016-07-17T11:17:17.980Z</time>
      </trkpt>
      <trkpt lat="47.82336" lon="7.01164">
        <ele>1126</ele>
        <time>2016-07-17T11:17:22.980Z</time>
      </trkpt>
      <trkpt lat="47.8234" lon="7.0115">
        <ele>1125.7012982861</ele>
        <time>2016-07-17T11:17:31.980Z</time>
      </trkpt>
      <trkpt lat="47.82344" lon="7.01138">
        <ele>1125.1961974146</ele>
        <time>2016-07-17T11:17:39.980Z</time>
      </trkpt>
      <trkpt lat="47.8235" lon="7.01123">
        <ele>1126.9979960767</ele>
        <time>2016-07-17T11:17:48.980Z</time>
      </trkpt>
      <trkpt lat="47.82354" lon="7.01109">
        <ele>1127</ele>
        <time>2016-07-17T11:17:56.980Z</time>
      </trkpt>
      <trkpt lat="47.82357" lon="7.01094">
        <ele>1126.40200064</ele>
        <time>2016-07-17T11:18:04.980Z</time>
      </trkpt>
      <trkpt lat="47.8236" lon="7.01083">
        <ele>1126</ele>
        <time>2016-07-17T11:18:11.980Z</time>
      </trkpt>
      <trkpt lat="47.82366" lon="7.01068">
        <ele>1126.3911755294</ele>
        <time>2016-07-17T11:18:22.980Z</time>
      </trkpt>
      <trkpt lat="47.82367" lon="7.01054">
        <ele>1127.1824659515</ele>
        <time>2016-07-17T11:18:30.980Z</time>
      </trkpt>
      <trkpt lat="47.82375" lon="7.01043">
        <ele>1127.9986743319</ele>
        <time>2016-07-17T11:18:38.987Z</time>
      </trkpt>
      <trkpt lat="47.82387" lon="7.0103">
        <ele>1128.69800064</ele>
        <time>2016-07-17T11:18:45.980Z</time>
      </trkpt>
      <trkpt lat="47.82403" lon="7.0101">
        <ele>1129</ele>
        <time>2016-07-17T11:19:03.980Z</time>
      </trkpt>
      <trkpt lat="47.82403" lon="7.00997">
        <ele>1129</ele>
        <time>2016-07-17T11:19:11.980Z</time>
      </trkpt>
      <trkpt lat="47.82406" lon="7.00981">
        <ele>1129.19600128</ele>
        <time>2016-07-17T11:19:19.980Z</time>
      </trkpt>
      <trkpt lat="47.82413" lon="7.00972">
        <ele>1131</ele>
        <time>2016-07-17T11:19:56.980Z</time>
      </trkpt>
      <trkpt lat="47.82421" lon="7.00964">
        <ele>1131</ele>
        <time>2016-07-17T11:20:04.980Z</time>
      </trkpt>
      <trkpt lat="47.8243" lon="7.00955">
        <ele>1131.49800064</ele>
        <time>2016-07-17T11:20:13.980Z</time>
      </trkpt>
      <trkpt lat="47.82437" lon="7.00935">
        <ele>1132.99799936</ele>
        <time>2016-07-17T11:20:28.980Z</time>
      </trkpt>
      <trkpt lat="47.82441" lon="7.00925">
        <ele>1133</ele>
        <time>2016-07-17T11:20:34.980Z</time>
      </trkpt>
      <trkpt lat="47.82452" lon="7.00922">
        <ele>1133.59600128</ele>
        <time>2016-07-17T11:20:41.980Z</time>
      </trkpt>
      <trkpt lat="47.8246" lon="7.00912">
        <ele>1135.49800064</ele>
        <time>2016-07-17T11:20:53.980Z</time>
      </trkpt>
      <trkpt lat="47.82468" lon="7.00901">
        <ele>1136.29800064</ele>
        <time>2016-07-17T11:21:01.980Z</time>
      </trkpt>
      <trkpt lat="47.82472" lon="7.00893">
        <ele>1136.79799936</ele>
        <time>2016-07-17T11:21:06.980Z</time>
      </trkpt>
      <trkpt lat="47.8248" lon="7.00883">
        <ele>1138.19599872</ele>
        <time>2016-07-17T11:21:14.980Z</time>
      </trkpt>
      <trkpt lat="47.82486" lon="7.00875">
        <ele>1139</ele>
        <time>2016-07-17T11:21:22.980Z</time>
      </trkpt>
      <trkpt lat="47.8249" lon="7.00868">
        <ele>1139</ele>
        <time>2016-07-17T11:21:28.980Z</time>
      </trkpt>
      <trkpt lat="47.82494" lon="7.00861">
        <ele>1139.49800064</ele>
        <time>2016-07-17T11:21:33.980Z</time>
      </trkpt>
      <trkpt lat="47.82503" lon="7.00846">
        <ele>1140.49800064</ele>
        <time>2016-07-17T11:21:43.980Z</time>
      </trkpt>
      <trkpt lat="47.82512" lon="7.00841">
        <ele>1141</ele>
        <time>2016-07-17T11:22:06.980Z</time>
      </trkpt>
      <trkpt lat="47.82519" lon="7.00834">
        <ele>1141</ele>
        <time>2016-07-17T11:22:12.980Z</time>
      </trkpt>
      <trkpt lat="47.82524" lon="7.00827">
        <ele>1141</ele>
        <time>2016-07-17T11:22:18.980Z</time>
      </trkpt>
      <trkpt lat="47.82531" lon="7.00821">
        <ele>1142.19599872</ele>
        <time>2016-07-17T11:22:24.980Z</time>
      </trkpt>
      <trkpt lat="47.82536" lon="7.00815">
        <ele>1143</ele>
        <time>2016-07-17T11:22:30.980Z</time>
      </trkpt>
      <trkpt lat="47.82541" lon="7.00809">
        <ele>1143</ele>
        <time>2016-07-17T11:22:35.980Z</time>
      </trkpt>
      <trkpt lat="47.82546" lon="7.00804">
        <ele>1143.19799936</ele>
        <time>2016-07-17T11:22:40.980Z</time>
      </trkpt>
      <trkpt lat="47.82551" lon="7.00798">
        <ele>1143.69800064</ele>
        <time>2016-07-17T11:22:45.980Z</time>
      </trkpt>
      <trkpt lat="47.82555" lon="7.0079">
        <ele>1144</ele>
        <time>2016-07-17T11:22:50.980Z</time>
      </trkpt>
      <trkpt lat="47.82559" lon="7.00784">
        <ele>1144</ele>
        <time>2016-07-17T11:22:55.980Z</time>
      </trkpt>
      <trkpt lat="47.82566" lon="7.00773">
        <ele>1143.50199936</ele>
        <time>2016-07-17T11:23:03.980Z</time>
      </trkpt>
      <trkpt lat="47.82569" lon="7.00764">
        <ele>1143.00200064</ele>
        <time>2016-07-17T11:23:08.980Z</time>
      </trkpt>
      <trkpt lat="47.82573" lon="7.00756">
        <ele>1143.49800064</ele>
        <time>2016-07-17T11:23:13.980Z</time>
      </trkpt>
      <trkpt lat="47.82576" lon="7.00749">
        <ele>1143.99799936</ele>
        <time>2016-07-17T11:23:18.980Z</time>
      </trkpt>
      <trkpt lat="47.82584" lon="7.00737">
        <ele>1144.79799936</ele>
        <time>2016-07-17T11:23:26.980Z</time>
      </trkpt>
      <trkpt lat="47.82587" lon="7.00729">
        <ele>1145</ele>
        <time>2016-07-17T11:23:31.980Z</time>
      </trkpt>
      <trkpt lat="47.82595" lon="7.00727">
        <ele>1145</ele>
        <time>2016-07-17T11:23:38.980Z</time>
      </trkpt>
      <trkpt lat="47.82597" lon="7.0072">
        <ele>1145</ele>
        <time>2016-07-17T11:23:43.980Z</time>
      </trkpt>
      <trkpt lat="47.82602" lon="7.00716">
        <ele>1145</ele>
        <time>2016-07-17T11:23:48.980Z</time>
      </trkpt>
      <trkpt lat="47.82617" lon="7.00704">
        <ele>1149</ele>
        <time>2016-07-17T11:24:18.980Z</time>
      </trkpt>
      <trkpt lat="47.82625" lon="7.00694">
        <ele>1150</ele>
        <time>2016-07-17T11:24:29.980Z</time>
      </trkpt>
      <trkpt lat="47.82633" lon="7.00683">
        <ele>1150</ele>
        <time>2016-07-17T11:24:42.980Z</time>
      </trkpt>
      <trkpt lat="47.82638" lon="7.00671">
        <ele>1150.59600128</ele>
        <time>2016-07-17T11:24:51.980Z</time>
      </trkpt>
      <trkpt lat="47.82643" lon="7.00665">
        <ele>1151.79600128</ele>
        <time>2016-07-17T11:24:57.980Z</time>
      </trkpt>
      <trkpt lat="47.82653" lon="7.00657">
        <ele>1152</ele>
        <time>2016-07-17T11:25:04.980Z</time>
      </trkpt>
      <trkpt lat="47.8266" lon="7.00647">
        <ele>1152.4986017178</ele>
        <time>2016-07-17T11:25:13.981Z</time>
      </trkpt>
      <trkpt lat="47.82667" lon="7.00637">
        <ele>1154.19599872</ele>
        <time>2016-07-17T11:25:24.980Z</time>
      </trkpt>
      <trkpt lat="47.82675" lon="7.00626">
        <ele>1155.69800064</ele>
        <time>2016-07-17T11:25:35.980Z</time>
      </trkpt>
      <trkpt lat="47.82684" lon="7.00622">
        <ele>1156.89800064</ele>
        <time>2016-07-17T11:25:47.980Z</time>
      </trkpt>
      <trkpt lat="47.82692" lon="7.00612">
        <ele>1157.69800064</ele>
        <time>2016-07-17T11:25:55.980Z</time>
      </trkpt>
      <trkpt lat="47.82699" lon="7.00614">
        <ele>1158.29800064</ele>
        <time>2016-07-17T11:26:01.980Z</time>
      </trkpt>
      <trkpt lat="47.82709" lon="7.00612">
        <ele>1159</ele>
        <time>2016-07-17T11:26:09.980Z</time>
      </trkpt>
      <trkpt lat="47.82719" lon="7.00608">
        <ele>1159.39599872</ele>
        <time>2016-07-17T11:26:20.980Z</time>
      </trkpt>
      <trkpt lat="47.82726" lon="7.00604">
        <ele>1160.99599872</ele>
        <time>2016-07-17T11:26:28.980Z</time>
      </trkpt>
      <trkpt lat="47.82733" lon="7.00601">
        <ele>1162.19599872</ele>
        <time>2016-07-17T11:26:34.980Z</time>
      </trkpt>
      <trkpt lat="47.82737" lon="7.00597">
        <ele>1163</ele>
        <time>2016-07-17T11:26:40.081Z</time>
      </trkpt>
      <trkpt lat="47.82745" lon="7.00591">
        <ele>1163</ele>
        <time>2016-07-17T11:26:46.082Z</time>
      </trkpt>
      <trkpt lat="47.82755" lon="7.00583">
        <ele>1163</ele>
        <time>2016-07-17T11:27:01.980Z</time>
      </trkpt>
      <trkpt lat="47.82762" lon="7.00575">
        <ele>1163</ele>
        <time>2016-07-17T11:27:08.980Z</time>
      </trkpt>
      <trkpt lat="47.8277" lon="7.00564">
        <ele>1163</ele>
        <time>2016-07-17T11:27:16.980Z</time>
      </trkpt>
      <trkpt lat="47.8278" lon="7.00558">
        <ele>1163</ele>
        <time>2016-07-17T11:27:24.980Z</time>
      </trkpt>
      <trkpt lat="47.82789" lon="7.0055">
        <ele>1163</ele>
        <time>2016-07-17T11:27:32.980Z</time>
      </trkpt>
      <trkpt lat="47.82798" lon="7.00544">
        <ele>1163</ele>
        <time>2016-07-17T11:27:40.980Z</time>
      </trkpt>
      <trkpt lat="47.82807" lon="7.00535">
        <ele>1163.09800064</ele>
        <time>2016-07-17T11:27:49.980Z</time>
      </trkpt>
      <trkpt lat="47.82817" lon="7.0053">
        <ele>1163.99799936</ele>
        <time>2016-07-17T11:27:58.980Z</time>
      </trkpt>
      <trkpt lat="47.82826" lon="7.00524">
        <ele>1164</ele>
        <time>2016-07-17T11:28:07.980Z</time>
      </trkpt>
      <trkpt lat="47.82835" lon="7.00519">
        <ele>1164.79799936</ele>
        <time>2016-07-17T11:28:16.980Z</time>
      </trkpt>
      <trkpt lat="47.82846" lon="7.00515">
        <ele>1165.79799936</ele>
        <time>2016-07-17T11:28:26.980Z</time>
      </trkpt>
      <trkpt lat="47.82857" lon="7.00514">
        <ele>1166.69800064</ele>
        <time>2016-07-17T11:28:35.980Z</time>
      </trkpt>
      <trkpt lat="47.82867" lon="7.00513">
        <ele>1167</ele>
        <time>2016-07-17T11:28:44.980Z</time>
      </trkpt>
      <trkpt lat="47.82878" lon="7.0051">
        <ele>1168.194804298</ele>
        <time>2016-07-17T11:28:54.980Z</time>
      </trkpt>
      <trkpt lat="47.82888" lon="7.00507">
        <ele>1170.1951941717</ele>
        <time>2016-07-17T11:29:04.980Z</time>
      </trkpt>
      <trkpt lat="47.82895" lon="7.00504">
        <ele>1171</ele>
        <time>2016-07-17T11:29:15.980Z</time>
      </trkpt>
      <trkpt lat="47.82901" lon="7.00498">
        <ele>1171</ele>
        <time>2016-07-17T11:29:22.980Z</time>
      </trkpt>
      <trkpt lat="47.82905" lon="7.00491">
        <ele>1171.19799936</ele>
        <time>2016-07-17T11:29:30.980Z</time>
      </trkpt>
      <trkpt lat="47.82908" lon="7.00484">
        <ele>1171.89800064</ele>
        <time>2016-07-17T11:29:37.980Z</time>
      </trkpt>
      <trkpt lat="47.82904" lon="7.00473">
        <ele>1172.69800064</ele>
        <time>2016-07-17T11:29:45.980Z</time>
      </trkpt>
      <trkpt lat="47.82904" lon="7.00463">
        <ele>1173</ele>
        <time>2016-07-17T11:30:05.980Z</time>
      </trkpt>
      <trkpt lat="47.82901" lon="7.00455">
        <ele>1173</ele>
        <time>2016-07-17T11:30:13.980Z</time>
      </trkpt>
      <trkpt lat="47.829" lon="7.00461">
        <ele>1174</ele>
        <time>2016-07-17T11:30:39.980Z</time>
      </trkpt>
      <trkpt lat="47.82897" lon="7.00463">
        <ele>1174</ele>
        <time>2016-07-17T11:30:44.980Z</time>
      </trkpt>
      <trkpt lat="47.829" lon="7.00461">
        <ele>1175.49800064</ele>
        <time>2016-07-17T11:31:13.980Z</time>
      </trkpt>
      <trkpt lat="47.82903" lon="7.00458">
        <ele>1176.69800064</ele>
        <time>2016-07-17T11:32:25.980Z</time>
      </trkpt>
      <trkpt lat="47.82907" lon="7.00457">
        <ele>1176.80200064</ele>
        <time>2016-07-17T11:32:30.980Z</time>
      </trkpt>
      <trkpt lat="47.8291" lon="7.00454">
        <ele>1175.70199936</ele>
        <time>2016-07-17T11:32:41.980Z</time>
      </trkpt>
      <trkpt lat="47.82915" lon="7.00448">
        <ele>1175.00200064</ele>
        <time>2016-07-17T11:32:48.980Z</time>
      </trkpt>
      <trkpt lat="47.82918" lon="7.00438">
        <ele>1175</ele>
        <time>2016-07-17T11:32:55.980Z</time>
      </trkpt>
      <trkpt lat="47.82921" lon="7.00427">
        <ele>1172.60600192</ele>
        <time>2016-07-17T11:33:06.980Z</time>
      </trkpt>
      <trkpt lat="47.82929" lon="7.00428">
        <ele>1172</ele>
        <time>2016-07-17T11:33:13.980Z</time>
      </trkpt>
      <trkpt lat="47.82932" lon="7.00425">
        <ele>1172</ele>
        <time>2016-07-17T11:33:27.980Z</time>
      </trkpt>
      <trkpt lat="47.82934" lon="7.00416">
        <ele>1172</ele>
        <time>2016-07-17T11:33:34.980Z</time>
      </trkpt>
      <trkpt lat="47.82935" lon="7.00406">
        <ele>1171.80200064</ele>
        <time>2016-07-17T11:33:40.980Z</time>
      </trkpt>
      <trkpt lat="47.82939" lon="7.00394">
        <ele>1171.00200064</ele>
        <time>2016-07-17T11:33:48.980Z</time>
      </trkpt>
      <trkpt lat="47.82942" lon="7.00379">
        <ele>1169.40400128</ele>
        <time>2016-07-17T11:33:56.980Z</time>
      </trkpt>
      <trkpt lat="47.82952" lon="7.0036">
        <ele>1166.09800064</ele>
        <time>2016-07-17T11:34:09.980Z</time>
      </trkpt>
      <trkpt lat="47.82961" lon="7.00341">
        <ele>1166.89800064</ele>
        <time>2016-07-17T11:34:17.980Z</time>
      </trkpt>
      <trkpt lat="47.82968" lon="7.0032">
        <ele>1166.30199936</ele>
        <time>2016-07-17T11:34:25.980Z</time>
      </trkpt>
      <trkpt lat="47.82973" lon="7.00297">
        <ele>1163.90199936</ele>
        <time>2016-07-17T11:34:49.980Z</time>
      </trkpt>
      <trkpt lat="47.82984" lon="7.0028">
        <ele>1163.29800064</ele>
        <time>2016-07-17T11:35:01.980Z</time>
      </trkpt>
      <trkpt lat="47.82984" lon="7.00262">
        <ele>1163.20200064</ele>
        <time>2016-07-17T11:35:16.980Z</time>
      </trkpt>
      <trkpt lat="47.82984" lon="7.00243">
        <ele>1163</ele>
        <time>2016-07-17T11:35:26.981Z</time>
      </trkpt>
      <trkpt lat="47.82989" lon="7.0023">
        <ele>1163.99799936</ele>
        <time>2016-07-17T11:35:48.980Z</time>
      </trkpt>
      <trkpt lat="47.82995" lon="7.00225">
        <ele>1164</ele>
        <time>2016-07-17T11:35:54.980Z</time>
      </trkpt>
      <trkpt lat="47.82999" lon="7.00213">
        <ele>1163.50199936</ele>
        <time>2016-07-17T11:36:03.980Z</time>
      </trkpt>
      <trkpt lat="47.83003" lon="7.00204">
        <ele>1163.39799936</ele>
        <time>2016-07-17T11:36:12.980Z</time>
      </trkpt>
      <trkpt lat="47.83007" lon="7.00193">
        <ele>1164.29800064</ele>
        <time>2016-07-17T11:36:21.980Z</time>
      </trkpt>
      <trkpt lat="47.83006" lon="7.0017">
        <ele>1165.79799936</ele>
        <time>2016-07-17T11:36:46.980Z</time>
      </trkpt>
      <trkpt lat="47.83001" lon="7.00149">
        <ele>1165.09069952</ele>
        <time>2016-07-17T11:37:08.093Z</time>
      </trkpt>
      <trkpt lat="47.83003" lon="7.00159">
        <ele>1166.20200064</ele>
        <time>2016-07-17T11:38:26.980Z</time>
      </trkpt>
      <trkpt lat="47.83003" lon="7.00159">
        <ele>1166</ele>
        <time>2016-07-17T11:38:40.988Z</time>
      </trkpt>
    </trkseg>
  </trk>
</gpx>